<?xml version="1.0" encoding="utf-8"?>
<gpx xmlns:xsi="http://www.w3.org/2001/XMLSchema-instance" xmlns:xsd="http://www.w3.org/2001/XMLSchema" version="1.1" creator="Shapelink.com" xmlns="http://www.topografix.com/GPX/1/1" xmlns:gpxtpx="http://www.garmin.com/xmlschemas/TrackPointExtension/v1">
  <metadata>
    <name>Radfahren 29.33 km, 2011-05-13</name>
    <desc></desc>
    <author><name>Jessica Ternander</name></author> 
    <time>2011-05-13T05:39:38Z</time>
  </metadata>
  <trk>
    <name>Radfahren 29.33 km, 2011-05-13</name>
    <trkseg>
      <trkpt lat="59.2993924" lon="18.5073668">
        <ele>41.9547</ele>
        <time>2011-05-13T05:39:38Z</time>
      </trkpt>
      <trkpt lat="59.2993839" lon="18.5070989">
        <ele>36.6675</ele>
        <time>2011-05-13T05:39:43Z</time>
      </trkpt>
      <trkpt lat="59.2993281" lon="18.506611">
        <ele>32.3416</ele>
        <time>2011-05-13T05:39:49Z</time>
      </trkpt>
      <trkpt lat="59.2992234" lon="18.5059029">
        <ele>29.9381</ele>
        <time>2011-05-13T05:39:57Z</time>
      </trkpt>
      <trkpt lat="59.2992017" lon="18.5053932">
        <ele>28.9769</ele>
        <time>2011-05-13T05:40:03Z</time>
      </trkpt>
      <trkpt lat="59.2993094" lon="18.5052369">
        <ele>29.4575</ele>
        <time>2011-05-13T05:40:06Z</time>
      </trkpt>
      <trkpt lat="59.2994348" lon="18.5051155">
        <ele>29.9381</ele>
        <time>2011-05-13T05:40:09Z</time>
      </trkpt>
      <trkpt lat="59.2996209" lon="18.5046794">
        <ele>30.4188</ele>
        <time>2011-05-13T05:40:16Z</time>
      </trkpt>
      <trkpt lat="59.2997193" lon="18.5043238">
        <ele>29.4575</ele>
        <time>2011-05-13T05:40:23Z</time>
      </trkpt>
      <trkpt lat="59.2998291" lon="18.5038983">
        <ele>28.4962</ele>
        <time>2011-05-13T05:40:29Z</time>
      </trkpt>
      <trkpt lat="59.299983" lon="18.5033963">
        <ele>28.4962</ele>
        <time>2011-05-13T05:40:36Z</time>
      </trkpt>
      <trkpt lat="59.3001202" lon="18.5030024">
        <ele>26.5736</ele>
        <time>2011-05-13T05:40:42Z</time>
      </trkpt>
      <trkpt lat="59.3003" lon="18.5023723">
        <ele>26.0929</ele>
        <time>2011-05-13T05:40:49Z</time>
      </trkpt>
      <trkpt lat="59.300397" lon="18.5018004">
        <ele>25.1317</ele>
        <time>2011-05-13T05:40:54Z</time>
      </trkpt>
      <trkpt lat="59.300547" lon="18.5010062">
        <ele>24.651</ele>
        <time>2011-05-13T05:41:01Z</time>
      </trkpt>
      <trkpt lat="59.3006718" lon="18.5002934">
        <ele>25.6123</ele>
        <time>2011-05-13T05:41:08Z</time>
      </trkpt>
      <trkpt lat="59.3007907" lon="18.4996369">
        <ele>25.1317</ele>
        <time>2011-05-13T05:41:15Z</time>
      </trkpt>
      <trkpt lat="59.300929" lon="18.4988154">
        <ele>22.2476</ele>
        <time>2011-05-13T05:41:22Z</time>
      </trkpt>
      <trkpt lat="59.3010076" lon="18.4982761">
        <ele>19.8444</ele>
        <time>2011-05-13T05:41:26Z</time>
      </trkpt>
      <trkpt lat="59.301177" lon="18.4978016">
        <ele>16.9604</ele>
        <time>2011-05-13T05:41:31Z</time>
      </trkpt>
      <trkpt lat="59.3013556" lon="18.4975536">
        <ele>15.999</ele>
        <time>2011-05-13T05:41:35Z</time>
      </trkpt>
      <trkpt lat="59.3014717" lon="18.4974976">
        <ele>14.557</ele>
        <time>2011-05-13T05:41:39Z</time>
      </trkpt>
      <trkpt lat="59.3015354" lon="18.4976684">
        <ele>14.557</ele>
        <time>2011-05-13T05:41:42Z</time>
      </trkpt>
      <trkpt lat="59.3015661" lon="18.4977417">
        <ele>15.5184</ele>
        <time>2011-05-13T05:41:43Z</time>
      </trkpt>
      <trkpt lat="59.3016806" lon="18.4981355">
        <ele>16.9604</ele>
        <time>2011-05-13T05:41:48Z</time>
      </trkpt>
      <trkpt lat="59.3017976" lon="18.4985855">
        <ele>20.325</ele>
        <time>2011-05-13T05:41:53Z</time>
      </trkpt>
      <trkpt lat="59.3018239" lon="18.49909">
        <ele>18.4023</ele>
        <time>2011-05-13T05:41:58Z</time>
      </trkpt>
      <trkpt lat="59.3018515" lon="18.4993032">
        <ele>18.4023</ele>
        <time>2011-05-13T05:42:00Z</time>
      </trkpt>
      <trkpt lat="59.3020507" lon="18.5001173">
        <ele>21.2864</ele>
        <time>2011-05-13T05:42:07Z</time>
      </trkpt>
      <trkpt lat="59.3023286" lon="18.5010761">
        <ele>21.767</ele>
        <time>2011-05-13T05:42:15Z</time>
      </trkpt>
      <trkpt lat="59.3024944" lon="18.5017517">
        <ele>16.9604</ele>
        <time>2011-05-13T05:42:21Z</time>
      </trkpt>
      <trkpt lat="59.3025507" lon="18.501923">
        <ele>15.0377</ele>
        <time>2011-05-13T05:42:23Z</time>
      </trkpt>
      <trkpt lat="59.3027004" lon="18.5021199">
        <ele>14.557</ele>
        <time>2011-05-13T05:42:28Z</time>
      </trkpt>
      <trkpt lat="59.3027425" lon="18.5020349">
        <ele>14.557</ele>
        <time>2011-05-13T05:42:31Z</time>
      </trkpt>
      <trkpt lat="59.3028099" lon="18.5016843">
        <ele>15.5184</ele>
        <time>2011-05-13T05:42:38Z</time>
      </trkpt>
      <trkpt lat="59.3028817" lon="18.5012844">
        <ele>13.1151</ele>
        <time>2011-05-13T05:42:45Z</time>
      </trkpt>
      <trkpt lat="59.3029427" lon="18.5008264">
        <ele>12.6344</ele>
        <time>2011-05-13T05:42:50Z</time>
      </trkpt>
      <trkpt lat="59.303022" lon="18.5002416">
        <ele>13.1151</ele>
        <time>2011-05-13T05:42:55Z</time>
      </trkpt>
      <trkpt lat="59.3031625" lon="18.4995164">
        <ele>11.1925</ele>
        <time>2011-05-13T05:43:00Z</time>
      </trkpt>
      <trkpt lat="59.3031979" lon="18.4993662">
        <ele>11.1925</ele>
        <time>2011-05-13T05:43:01Z</time>
      </trkpt>
      <trkpt lat="59.3033742" lon="18.4979515">
        <ele>7.34717</ele>
        <time>2011-05-13T05:43:10Z</time>
      </trkpt>
      <trkpt lat="59.3035007" lon="18.4969818">
        <ele>3.50195</ele>
        <time>2011-05-13T05:43:17Z</time>
      </trkpt>
      <trkpt lat="59.3035764" lon="18.4964519">
        <ele>2.54065</ele>
        <time>2011-05-13T05:43:22Z</time>
      </trkpt>
      <trkpt lat="59.303709" lon="18.4954394">
        <ele>3.02124</ele>
        <time>2011-05-13T05:43:31Z</time>
      </trkpt>
      <trkpt lat="59.3038081" lon="18.4950084">
        <ele>4.46326</ele>
        <time>2011-05-13T05:43:35Z</time>
      </trkpt>
      <trkpt lat="59.3040012" lon="18.4943874">
        <ele>5.90527</ele>
        <time>2011-05-13T05:43:41Z</time>
      </trkpt>
      <trkpt lat="59.3040343" lon="18.4942891">
        <ele>5.90527</ele>
        <time>2011-05-13T05:43:42Z</time>
      </trkpt>
      <trkpt lat="59.3042486" lon="18.4935737">
        <ele>6.38586</ele>
        <time>2011-05-13T05:43:49Z</time>
      </trkpt>
      <trkpt lat="59.3042793" lon="18.4934748">
        <ele>6.38586</ele>
        <time>2011-05-13T05:43:50Z</time>
      </trkpt>
      <trkpt lat="59.3044601" lon="18.4926495">
        <ele>5.42456</ele>
        <time>2011-05-13T05:43:57Z</time>
      </trkpt>
      <trkpt lat="59.3046015" lon="18.4917715">
        <ele>5.42456</ele>
        <time>2011-05-13T05:44:04Z</time>
      </trkpt>
      <trkpt lat="59.3047086" lon="18.4909058">
        <ele>6.86646</ele>
        <time>2011-05-13T05:44:11Z</time>
      </trkpt>
      <trkpt lat="59.3047777" lon="18.4898154">
        <ele>7.34717</ele>
        <time>2011-05-13T05:44:20Z</time>
      </trkpt>
      <trkpt lat="59.3047913" lon="18.4897084">
        <ele>7.34717</ele>
        <time>2011-05-13T05:44:21Z</time>
      </trkpt>
      <trkpt lat="59.3048161" lon="18.4887924">
        <ele>8.78918</ele>
        <time>2011-05-13T05:44:29Z</time>
      </trkpt>
      <trkpt lat="59.304842" lon="18.4878827">
        <ele>12.6344</ele>
        <time>2011-05-13T05:44:37Z</time>
      </trkpt>
      <trkpt lat="59.3048446" lon="18.4877931">
        <ele>13.1151</ele>
        <time>2011-05-13T05:44:38Z</time>
      </trkpt>
      <trkpt lat="59.3048093" lon="18.487207">
        <ele>13.5958</ele>
        <time>2011-05-13T05:44:43Z</time>
      </trkpt>
      <trkpt lat="59.3048113" lon="18.4863408">
        <ele>15.0377</ele>
        <time>2011-05-13T05:44:50Z</time>
      </trkpt>
      <trkpt lat="59.3048668" lon="18.4854363">
        <ele>13.1151</ele>
        <time>2011-05-13T05:44:57Z</time>
      </trkpt>
      <trkpt lat="59.3048746" lon="18.485311">
        <ele>13.1151</ele>
        <time>2011-05-13T05:44:58Z</time>
      </trkpt>
      <trkpt lat="59.3048686" lon="18.4849665">
        <ele>13.5958</ele>
        <time>2011-05-13T05:45:01Z</time>
      </trkpt>
      <trkpt lat="59.3049296" lon="18.4845405">
        <ele>13.5958</ele>
        <time>2011-05-13T05:45:05Z</time>
      </trkpt>
      <trkpt lat="59.3049717" lon="18.4843374">
        <ele>13.5958</ele>
        <time>2011-05-13T05:45:07Z</time>
      </trkpt>
      <trkpt lat="59.3049962" lon="18.4841165">
        <ele>13.5958</ele>
        <time>2011-05-13T05:45:09Z</time>
      </trkpt>
      <trkpt lat="59.3049594" lon="18.4835469">
        <ele>13.1151</ele>
        <time>2011-05-13T05:45:14Z</time>
      </trkpt>
      <trkpt lat="59.3048985" lon="18.4831053">
        <ele>13.1151</ele>
        <time>2011-05-13T05:45:18Z</time>
      </trkpt>
      <trkpt lat="59.3049304" lon="18.4826198">
        <ele>15.0377</ele>
        <time>2011-05-13T05:45:23Z</time>
      </trkpt>
      <trkpt lat="59.3050765" lon="18.482078">
        <ele>15.5184</ele>
        <time>2011-05-13T05:45:31Z</time>
      </trkpt>
      <trkpt lat="59.3051878" lon="18.481545">
        <ele>15.999</ele>
        <time>2011-05-13T05:45:39Z</time>
      </trkpt>
      <trkpt lat="59.305263" lon="18.4809693">
        <ele>16.4797</ele>
        <time>2011-05-13T05:45:46Z</time>
      </trkpt>
      <trkpt lat="59.3053266" lon="18.4803666">
        <ele>15.5184</ele>
        <time>2011-05-13T05:45:51Z</time>
      </trkpt>
      <trkpt lat="59.305477" lon="18.4794159">
        <ele>14.0764</ele>
        <time>2011-05-13T05:45:58Z</time>
      </trkpt>
      <trkpt lat="59.305589" lon="18.4786399">
        <ele>13.5958</ele>
        <time>2011-05-13T05:46:04Z</time>
      </trkpt>
      <trkpt lat="59.3057262" lon="18.4780697">
        <ele>14.0764</ele>
        <time>2011-05-13T05:46:09Z</time>
      </trkpt>
      <trkpt lat="59.3059664" lon="18.4771394">
        <ele>15.0377</ele>
        <time>2011-05-13T05:46:18Z</time>
      </trkpt>
      <trkpt lat="59.3061411" lon="18.4762521">
        <ele>16.9604</ele>
        <time>2011-05-13T05:46:28Z</time>
      </trkpt>
      <trkpt lat="59.3062935" lon="18.4755447">
        <ele>17.9218</ele>
        <time>2011-05-13T05:46:37Z</time>
      </trkpt>
      <trkpt lat="59.3064352" lon="18.4748918">
        <ele>18.4023</ele>
        <time>2011-05-13T05:46:46Z</time>
      </trkpt>
      <trkpt lat="59.3065519" lon="18.4744095">
        <ele>18.4023</ele>
        <time>2011-05-13T05:46:53Z</time>
      </trkpt>
      <trkpt lat="59.3067052" lon="18.4738194">
        <ele>18.4023</ele>
        <time>2011-05-13T05:47:02Z</time>
      </trkpt>
      <trkpt lat="59.3068548" lon="18.4734304">
        <ele>17.9218</ele>
        <time>2011-05-13T05:47:08Z</time>
      </trkpt>
      <trkpt lat="59.3069843" lon="18.4732227">
        <ele>19.3638</ele>
        <time>2011-05-13T05:47:13Z</time>
      </trkpt>
      <trkpt lat="59.3071134" lon="18.4729728">
        <ele>19.8444</ele>
        <time>2011-05-13T05:47:20Z</time>
      </trkpt>
      <trkpt lat="59.3072482" lon="18.4726872">
        <ele>19.3638</ele>
        <time>2011-05-13T05:47:25Z</time>
      </trkpt>
      <trkpt lat="59.3074821" lon="18.4722359">
        <ele>18.4023</ele>
        <time>2011-05-13T05:47:31Z</time>
      </trkpt>
      <trkpt lat="59.3076033" lon="18.4720586">
        <ele>18.4023</ele>
        <time>2011-05-13T05:47:34Z</time>
      </trkpt>
      <trkpt lat="59.3077193" lon="18.4717629">
        <ele>16.4797</ele>
        <time>2011-05-13T05:47:38Z</time>
      </trkpt>
      <trkpt lat="59.3079096" lon="18.4715293">
        <ele>14.0764</ele>
        <time>2011-05-13T05:47:42Z</time>
      </trkpt>
      <trkpt lat="59.3080302" lon="18.4714003">
        <ele>13.5958</ele>
        <time>2011-05-13T05:47:44Z</time>
      </trkpt>
      <trkpt lat="59.3084484" lon="18.4707595">
        <ele>9.75061</ele>
        <time>2011-05-13T05:47:51Z</time>
      </trkpt>
      <trkpt lat="59.3087559" lon="18.4701871">
        <ele>9.2699</ele>
        <time>2011-05-13T05:47:57Z</time>
      </trkpt>
      <trkpt lat="59.3090819" lon="18.4695417">
        <ele>9.2699</ele>
        <time>2011-05-13T05:48:05Z</time>
      </trkpt>
      <trkpt lat="59.3093407" lon="18.4690955">
        <ele>9.2699</ele>
        <time>2011-05-13T05:48:11Z</time>
      </trkpt>
      <trkpt lat="59.3095827" lon="18.4684746">
        <ele>7.82788</ele>
        <time>2011-05-13T05:48:18Z</time>
      </trkpt>
      <trkpt lat="59.3098081" lon="18.4677642">
        <ele>7.34717</ele>
        <time>2011-05-13T05:48:25Z</time>
      </trkpt>
      <trkpt lat="59.3098592" lon="18.4675422">
        <ele>7.34717</ele>
        <time>2011-05-13T05:48:27Z</time>
      </trkpt>
      <trkpt lat="59.3099593" lon="18.4667227">
        <ele>6.86646</ele>
        <time>2011-05-13T05:48:34Z</time>
      </trkpt>
      <trkpt lat="59.3100267" lon="18.4663239">
        <ele>5.42456</ele>
        <time>2011-05-13T05:48:37Z</time>
      </trkpt>
      <trkpt lat="59.310282" lon="18.4654224">
        <ele>3.02124</ele>
        <time>2011-05-13T05:48:43Z</time>
      </trkpt>
      <trkpt lat="59.3105006" lon="18.4645574">
        <ele>1.57935</ele>
        <time>2011-05-13T05:48:49Z</time>
      </trkpt>
      <trkpt lat="59.3107234" lon="18.4637773">
        <ele>0.137451</ele>
        <time>2011-05-13T05:48:55Z</time>
      </trkpt>
      <trkpt lat="59.3109377" lon="18.4630831">
        <ele>1.09863</ele>
        <time>2011-05-13T05:49:01Z</time>
      </trkpt>
      <trkpt lat="59.3111321" lon="18.4624731">
        <ele>1.57935</ele>
        <time>2011-05-13T05:49:07Z</time>
      </trkpt>
      <trkpt lat="59.3113158" lon="18.4619017">
        <ele>4.46326</ele>
        <time>2011-05-13T05:49:14Z</time>
      </trkpt>
      <trkpt lat="59.3114382" lon="18.4614709">
        <ele>5.90527</ele>
        <time>2011-05-13T05:49:21Z</time>
      </trkpt>
      <trkpt lat="59.3115102" lon="18.4610824">
        <ele>6.86646</ele>
        <time>2011-05-13T05:49:28Z</time>
      </trkpt>
      <trkpt lat="59.3115869" lon="18.4607985">
        <ele>7.82788</ele>
        <time>2011-05-13T05:49:34Z</time>
      </trkpt>
      <trkpt lat="59.3116511" lon="18.4605693">
        <ele>8.30859</ele>
        <time>2011-05-13T05:49:39Z</time>
      </trkpt>
      <trkpt lat="59.3117543" lon="18.4602635">
        <ele>8.78918</ele>
        <time>2011-05-13T05:49:45Z</time>
      </trkpt>
      <trkpt lat="59.3118771" lon="18.459834">
        <ele>9.75061</ele>
        <time>2011-05-13T05:49:52Z</time>
      </trkpt>
      <trkpt lat="59.3120959" lon="18.4595209">
        <ele>9.2699</ele>
        <time>2011-05-13T05:49:58Z</time>
      </trkpt>
      <trkpt lat="59.3123352" lon="18.4591966">
        <ele>7.82788</ele>
        <time>2011-05-13T05:50:03Z</time>
      </trkpt>
      <trkpt lat="59.3127369" lon="18.4586454">
        <ele>4.46326</ele>
        <time>2011-05-13T05:50:10Z</time>
      </trkpt>
      <trkpt lat="59.3129804" lon="18.4581788">
        <ele>3.50195</ele>
        <time>2011-05-13T05:50:15Z</time>
      </trkpt>
      <trkpt lat="59.3130636" lon="18.457742">
        <ele>3.50195</ele>
        <time>2011-05-13T05:50:19Z</time>
      </trkpt>
      <trkpt lat="59.3130705" lon="18.4569619">
        <ele>4.46326</ele>
        <time>2011-05-13T05:50:26Z</time>
      </trkpt>
      <trkpt lat="59.3130662" lon="18.4558916">
        <ele>5.42456</ele>
        <time>2011-05-13T05:50:36Z</time>
      </trkpt>
      <trkpt lat="59.3130854" lon="18.4556363">
        <ele>5.90527</ele>
        <time>2011-05-13T05:50:39Z</time>
      </trkpt>
      <trkpt lat="59.3131366" lon="18.4555528">
        <ele>6.38586</ele>
        <time>2011-05-13T05:50:43Z</time>
      </trkpt>
      <trkpt lat="59.3132052" lon="18.4555952">
        <ele>6.86646</ele>
        <time>2011-05-13T05:50:48Z</time>
      </trkpt>
      <trkpt lat="59.3132424" lon="18.4555387">
        <ele>6.86646</ele>
        <time>2011-05-13T05:50:51Z</time>
      </trkpt>
      <trkpt lat="59.3132679" lon="18.4553331">
        <ele>7.34717</ele>
        <time>2011-05-13T05:50:55Z</time>
      </trkpt>
      <trkpt lat="59.3132959" lon="18.4547024">
        <ele>7.34717</ele>
        <time>2011-05-13T05:51:04Z</time>
      </trkpt>
      <trkpt lat="59.3132818" lon="18.4541676">
        <ele>7.82788</ele>
        <time>2011-05-13T05:51:11Z</time>
      </trkpt>
      <trkpt lat="59.313257" lon="18.4538439">
        <ele>8.30859</ele>
        <time>2011-05-13T05:51:15Z</time>
      </trkpt>
      <trkpt lat="59.3132623" lon="18.4536813">
        <ele>8.30859</ele>
        <time>2011-05-13T05:51:17Z</time>
      </trkpt>
      <trkpt lat="59.3133335" lon="18.4533734">
        <ele>8.30859</ele>
        <time>2011-05-13T05:51:21Z</time>
      </trkpt>
      <trkpt lat="59.3133609" lon="18.4533063">
        <ele>8.78918</ele>
        <time>2011-05-13T05:51:22Z</time>
      </trkpt>
      <trkpt lat="59.3133822" lon="18.4528859">
        <ele>10.2312</ele>
        <time>2011-05-13T05:51:27Z</time>
      </trkpt>
      <trkpt lat="59.3132947" lon="18.4520535">
        <ele>12.1538</ele>
        <time>2011-05-13T05:51:36Z</time>
      </trkpt>
      <trkpt lat="59.3133184" lon="18.4511316">
        <ele>12.1538</ele>
        <time>2011-05-13T05:51:45Z</time>
      </trkpt>
      <trkpt lat="59.3133829" lon="18.4501115">
        <ele>10.7118</ele>
        <time>2011-05-13T05:51:54Z</time>
      </trkpt>
      <trkpt lat="59.3133933" lon="18.4499944">
        <ele>10.2312</ele>
        <time>2011-05-13T05:51:55Z</time>
      </trkpt>
      <trkpt lat="59.3134196" lon="18.4493331">
        <ele>8.78918</ele>
        <time>2011-05-13T05:52:01Z</time>
      </trkpt>
      <trkpt lat="59.3134036" lon="18.4491164">
        <ele>8.78918</ele>
        <time>2011-05-13T05:52:03Z</time>
      </trkpt>
      <trkpt lat="59.3134379" lon="18.4486295">
        <ele>8.30859</ele>
        <time>2011-05-13T05:52:08Z</time>
      </trkpt>
      <trkpt lat="59.3134285" lon="18.448243">
        <ele>8.78918</ele>
        <time>2011-05-13T05:52:12Z</time>
      </trkpt>
      <trkpt lat="59.3134647" lon="18.4473629">
        <ele>9.75061</ele>
        <time>2011-05-13T05:52:20Z</time>
      </trkpt>
      <trkpt lat="59.3134792" lon="18.4469979">
        <ele>8.30859</ele>
        <time>2011-05-13T05:52:25Z</time>
      </trkpt>
      <trkpt lat="59.3134937" lon="18.4464139">
        <ele>6.38586</ele>
        <time>2011-05-13T05:52:31Z</time>
      </trkpt>
      <trkpt lat="59.3135164" lon="18.445475">
        <ele>7.34717</ele>
        <time>2011-05-13T05:52:39Z</time>
      </trkpt>
      <trkpt lat="59.3135435" lon="18.4444955">
        <ele>8.78918</ele>
        <time>2011-05-13T05:52:47Z</time>
      </trkpt>
      <trkpt lat="59.3135662" lon="18.4433017">
        <ele>11.6732</ele>
        <time>2011-05-13T05:52:57Z</time>
      </trkpt>
      <trkpt lat="59.313573" lon="18.4424165">
        <ele>15.0377</ele>
        <time>2011-05-13T05:53:05Z</time>
      </trkpt>
      <trkpt lat="59.3135728" lon="18.4416966">
        <ele>15.999</ele>
        <time>2011-05-13T05:53:12Z</time>
      </trkpt>
      <trkpt lat="59.3135579" lon="18.4409218">
        <ele>12.6344</ele>
        <time>2011-05-13T05:53:20Z</time>
      </trkpt>
      <trkpt lat="59.313561" lon="18.4408433">
        <ele>12.1538</ele>
        <time>2011-05-13T05:53:21Z</time>
      </trkpt>
      <trkpt lat="59.3134902" lon="18.4403052">
        <ele>12.1538</ele>
        <time>2011-05-13T05:53:28Z</time>
      </trkpt>
      <trkpt lat="59.3134497" lon="18.4400548">
        <ele>12.1538</ele>
        <time>2011-05-13T05:53:31Z</time>
      </trkpt>
      <trkpt lat="59.3133018" lon="18.4393097">
        <ele>13.5958</ele>
        <time>2011-05-13T05:53:40Z</time>
      </trkpt>
      <trkpt lat="59.3131544" lon="18.438508">
        <ele>16.9604</ele>
        <time>2011-05-13T05:53:50Z</time>
      </trkpt>
      <trkpt lat="59.313028" lon="18.4377569">
        <ele>19.3638</ele>
        <time>2011-05-13T05:54:00Z</time>
      </trkpt>
      <trkpt lat="59.3129166" lon="18.4370613">
        <ele>19.8444</ele>
        <time>2011-05-13T05:54:10Z</time>
      </trkpt>
      <trkpt lat="59.3128312" lon="18.4365173">
        <ele>20.325</ele>
        <time>2011-05-13T05:54:18Z</time>
      </trkpt>
      <trkpt lat="59.3127214" lon="18.4358598">
        <ele>20.8057</ele>
        <time>2011-05-13T05:54:27Z</time>
      </trkpt>
      <trkpt lat="59.3126298" lon="18.4353178">
        <ele>21.2864</ele>
        <time>2011-05-13T05:54:34Z</time>
      </trkpt>
      <trkpt lat="59.3125478" lon="18.4348022">
        <ele>21.767</ele>
        <time>2011-05-13T05:54:40Z</time>
      </trkpt>
      <trkpt lat="59.3124271" lon="18.4340342">
        <ele>21.2864</ele>
        <time>2011-05-13T05:54:48Z</time>
      </trkpt>
      <trkpt lat="59.3123717" lon="18.4336494">
        <ele>20.8057</ele>
        <time>2011-05-13T05:54:52Z</time>
      </trkpt>
      <trkpt lat="59.3123867" lon="18.4333607">
        <ele>20.325</ele>
        <time>2011-05-13T05:54:55Z</time>
      </trkpt>
      <trkpt lat="59.312356" lon="18.4328498">
        <ele>20.325</ele>
        <time>2011-05-13T05:55:00Z</time>
      </trkpt>
      <trkpt lat="59.3122438" lon="18.431813">
        <ele>18.4023</ele>
        <time>2011-05-13T05:55:10Z</time>
      </trkpt>
      <trkpt lat="59.3121142" lon="18.4306449">
        <ele>18.4023</ele>
        <time>2011-05-13T05:55:21Z</time>
      </trkpt>
      <trkpt lat="59.312006" lon="18.4296734">
        <ele>18.8831</ele>
        <time>2011-05-13T05:55:30Z</time>
      </trkpt>
      <trkpt lat="59.3120723" lon="18.4293005">
        <ele>18.8831</ele>
        <time>2011-05-13T05:55:34Z</time>
      </trkpt>
      <trkpt lat="59.3121491" lon="18.429143">
        <ele>18.8831</ele>
        <time>2011-05-13T05:55:36Z</time>
      </trkpt>
      <trkpt lat="59.3124505" lon="18.4282696">
        <ele>17.4412</ele>
        <time>2011-05-13T05:55:45Z</time>
      </trkpt>
      <trkpt lat="59.3125453" lon="18.4277153">
        <ele>15.999</ele>
        <time>2011-05-13T05:55:50Z</time>
      </trkpt>
      <trkpt lat="59.3126103" lon="18.427226">
        <ele>14.557</ele>
        <time>2011-05-13T05:55:55Z</time>
      </trkpt>
      <trkpt lat="59.3126194" lon="18.4271693">
        <ele>14.557</ele>
        <time>2011-05-13T05:55:56Z</time>
      </trkpt>
      <trkpt lat="59.3126753" lon="18.4268629">
        <ele>14.557</ele>
        <time>2011-05-13T05:56:02Z</time>
      </trkpt>
      <trkpt lat="59.3127167" lon="18.4264671">
        <ele>14.0764</ele>
        <time>2011-05-13T05:56:07Z</time>
      </trkpt>
      <trkpt lat="59.3127628" lon="18.4257243">
        <ele>13.5958</ele>
        <time>2011-05-13T05:56:15Z</time>
      </trkpt>
      <trkpt lat="59.3128082" lon="18.4252097">
        <ele>13.1151</ele>
        <time>2011-05-13T05:56:20Z</time>
      </trkpt>
      <trkpt lat="59.3129258" lon="18.4248576">
        <ele>13.5958</ele>
        <time>2011-05-13T05:56:24Z</time>
      </trkpt>
      <trkpt lat="59.3130342" lon="18.4244945">
        <ele>14.0764</ele>
        <time>2011-05-13T05:56:28Z</time>
      </trkpt>
      <trkpt lat="59.3130356" lon="18.4242863">
        <ele>14.557</ele>
        <time>2011-05-13T05:56:30Z</time>
      </trkpt>
      <trkpt lat="59.313105" lon="18.4235283">
        <ele>15.5184</ele>
        <time>2011-05-13T05:56:37Z</time>
      </trkpt>
      <trkpt lat="59.3132193" lon="18.423157">
        <ele>15.5184</ele>
        <time>2011-05-13T05:56:41Z</time>
      </trkpt>
      <trkpt lat="59.3135536" lon="18.422335">
        <ele>14.0764</ele>
        <time>2011-05-13T05:56:51Z</time>
      </trkpt>
      <trkpt lat="59.313764" lon="18.4216843">
        <ele>14.0764</ele>
        <time>2011-05-13T05:56:58Z</time>
      </trkpt>
      <trkpt lat="59.3140022" lon="18.420781">
        <ele>14.557</ele>
        <time>2011-05-13T05:57:07Z</time>
      </trkpt>
      <trkpt lat="59.314107" lon="18.4202717">
        <ele>14.557</ele>
        <time>2011-05-13T05:57:12Z</time>
      </trkpt>
      <trkpt lat="59.3142943" lon="18.4197143">
        <ele>14.0764</ele>
        <time>2011-05-13T05:57:18Z</time>
      </trkpt>
      <trkpt lat="59.3146285" lon="18.4190143">
        <ele>13.5958</ele>
        <time>2011-05-13T05:57:27Z</time>
      </trkpt>
      <trkpt lat="59.3150002" lon="18.418313">
        <ele>14.0764</ele>
        <time>2011-05-13T05:57:37Z</time>
      </trkpt>
      <trkpt lat="59.3153631" lon="18.4177371">
        <ele>14.557</ele>
        <time>2011-05-13T05:57:46Z</time>
      </trkpt>
      <trkpt lat="59.3157259" lon="18.417219">
        <ele>15.0377</ele>
        <time>2011-05-13T05:57:54Z</time>
      </trkpt>
      <trkpt lat="59.3161045" lon="18.4166611">
        <ele>15.999</ele>
        <time>2011-05-13T05:58:02Z</time>
      </trkpt>
      <trkpt lat="59.316579" lon="18.4158718">
        <ele>15.5184</ele>
        <time>2011-05-13T05:58:13Z</time>
      </trkpt>
      <trkpt lat="59.3169419" lon="18.4151907">
        <ele>14.557</ele>
        <time>2011-05-13T05:58:22Z</time>
      </trkpt>
      <trkpt lat="59.3171074" lon="18.4147759">
        <ele>14.557</ele>
        <time>2011-05-13T05:58:27Z</time>
      </trkpt>
      <trkpt lat="59.3172571" lon="18.4141689">
        <ele>14.0764</ele>
        <time>2011-05-13T05:58:34Z</time>
      </trkpt>
      <trkpt lat="59.3174464" lon="18.4135281">
        <ele>13.1151</ele>
        <time>2011-05-13T05:58:42Z</time>
      </trkpt>
      <trkpt lat="59.3176134" lon="18.4128257">
        <ele>13.5958</ele>
        <time>2011-05-13T05:58:50Z</time>
      </trkpt>
      <trkpt lat="59.3177646" lon="18.4122135">
        <ele>13.5958</ele>
        <time>2011-05-13T05:58:57Z</time>
      </trkpt>
      <trkpt lat="59.3179269" lon="18.4115018">
        <ele>13.1151</ele>
        <time>2011-05-13T05:59:05Z</time>
      </trkpt>
      <trkpt lat="59.3181418" lon="18.4106652">
        <ele>15.0377</ele>
        <time>2011-05-13T05:59:14Z</time>
      </trkpt>
      <trkpt lat="59.3183191" lon="18.4100032">
        <ele>15.0377</ele>
        <time>2011-05-13T05:59:21Z</time>
      </trkpt>
      <trkpt lat="59.3185044" lon="18.4093065">
        <ele>14.557</ele>
        <time>2011-05-13T05:59:28Z</time>
      </trkpt>
      <trkpt lat="59.3187053" lon="18.4085907">
        <ele>13.5958</ele>
        <time>2011-05-13T05:59:35Z</time>
      </trkpt>
      <trkpt lat="59.3189908" lon="18.4078343">
        <ele>13.5958</ele>
        <time>2011-05-13T05:59:43Z</time>
      </trkpt>
      <trkpt lat="59.3192431" lon="18.4070426">
        <ele>13.5958</ele>
        <time>2011-05-13T05:59:51Z</time>
      </trkpt>
      <trkpt lat="59.3193943" lon="18.4063335">
        <ele>13.5958</ele>
        <time>2011-05-13T05:59:58Z</time>
      </trkpt>
      <trkpt lat="59.3194782" lon="18.4059178">
        <ele>13.5958</ele>
        <time>2011-05-13T06:00:02Z</time>
      </trkpt>
      <trkpt lat="59.3196782" lon="18.404881">
        <ele>13.5958</ele>
        <time>2011-05-13T06:00:12Z</time>
      </trkpt>
      <trkpt lat="59.3198089" lon="18.4044737">
        <ele>13.5958</ele>
        <time>2011-05-13T06:00:17Z</time>
      </trkpt>
      <trkpt lat="59.3201039" lon="18.4040609">
        <ele>15.0377</ele>
        <time>2011-05-13T06:00:25Z</time>
      </trkpt>
      <trkpt lat="59.3203608" lon="18.4036981">
        <ele>15.5184</ele>
        <time>2011-05-13T06:00:33Z</time>
      </trkpt>
      <trkpt lat="59.3204585" lon="18.4035273">
        <ele>15.5184</ele>
        <time>2011-05-13T06:00:36Z</time>
      </trkpt>
      <trkpt lat="59.320797" lon="18.4029878">
        <ele>15.0377</ele>
        <time>2011-05-13T06:00:45Z</time>
      </trkpt>
      <trkpt lat="59.3209338" lon="18.4025996">
        <ele>12.6344</ele>
        <time>2011-05-13T06:00:49Z</time>
      </trkpt>
      <trkpt lat="59.3211573" lon="18.4022318">
        <ele>10.7118</ele>
        <time>2011-05-13T06:00:53Z</time>
      </trkpt>
      <trkpt lat="59.321433" lon="18.4020304">
        <ele>9.75061</ele>
        <time>2011-05-13T06:00:57Z</time>
      </trkpt>
      <trkpt lat="59.3218062" lon="18.4015871">
        <ele>8.30859</ele>
        <time>2011-05-13T06:01:03Z</time>
      </trkpt>
      <trkpt lat="59.3223476" lon="18.4006903">
        <ele>7.82788</ele>
        <time>2011-05-13T06:01:13Z</time>
      </trkpt>
      <trkpt lat="59.3225615" lon="18.4001894">
        <ele>9.75061</ele>
        <time>2011-05-13T06:01:19Z</time>
      </trkpt>
      <trkpt lat="59.3227292" lon="18.399777">
        <ele>12.1538</ele>
        <time>2011-05-13T06:01:25Z</time>
      </trkpt>
      <trkpt lat="59.322752" lon="18.3997169">
        <ele>13.1151</ele>
        <time>2011-05-13T06:01:26Z</time>
      </trkpt>
      <trkpt lat="59.322834" lon="18.3994691">
        <ele>14.557</ele>
        <time>2011-05-13T06:01:30Z</time>
      </trkpt>
      <trkpt lat="59.3229667" lon="18.3991724">
        <ele>15.999</ele>
        <time>2011-05-13T06:01:35Z</time>
      </trkpt>
      <trkpt lat="59.3230696" lon="18.3987345">
        <ele>19.3638</ele>
        <time>2011-05-13T06:01:42Z</time>
      </trkpt>
      <trkpt lat="59.3231685" lon="18.3984239">
        <ele>21.2864</ele>
        <time>2011-05-13T06:01:48Z</time>
      </trkpt>
      <trkpt lat="59.3233588" lon="18.3979895">
        <ele>23.209</ele>
        <time>2011-05-13T06:01:57Z</time>
      </trkpt>
      <trkpt lat="59.3235156" lon="18.397673">
        <ele>22.7283</ele>
        <time>2011-05-13T06:02:03Z</time>
      </trkpt>
      <trkpt lat="59.3237361" lon="18.397117">
        <ele>22.7283</ele>
        <time>2011-05-13T06:02:11Z</time>
      </trkpt>
      <trkpt lat="59.3238789" lon="18.3966795">
        <ele>21.767</ele>
        <time>2011-05-13T06:02:16Z</time>
      </trkpt>
      <trkpt lat="59.3240829" lon="18.3960447">
        <ele>16.9604</ele>
        <time>2011-05-13T06:02:22Z</time>
      </trkpt>
      <trkpt lat="59.3243875" lon="18.3954314">
        <ele>14.557</ele>
        <time>2011-05-13T06:02:28Z</time>
      </trkpt>
      <trkpt lat="59.324732" lon="18.3947436">
        <ele>12.1538</ele>
        <time>2011-05-13T06:02:34Z</time>
      </trkpt>
      <trkpt lat="59.3250374" lon="18.3939257">
        <ele>9.75061</ele>
        <time>2011-05-13T06:02:40Z</time>
      </trkpt>
      <trkpt lat="59.3253152" lon="18.3932097">
        <ele>7.82788</ele>
        <time>2011-05-13T06:02:46Z</time>
      </trkpt>
      <trkpt lat="59.3253638" lon="18.3931088">
        <ele>7.34717</ele>
        <time>2011-05-13T06:02:47Z</time>
      </trkpt>
      <trkpt lat="59.3256507" lon="18.3927321">
        <ele>5.90527</ele>
        <time>2011-05-13T06:02:52Z</time>
      </trkpt>
      <trkpt lat="59.325877" lon="18.3924199">
        <ele>4.46326</ele>
        <time>2011-05-13T06:02:56Z</time>
      </trkpt>
      <trkpt lat="59.3260288" lon="18.3923585">
        <ele>3.98267</ele>
        <time>2011-05-13T06:03:00Z</time>
      </trkpt>
      <trkpt lat="59.326101" lon="18.3922169">
        <ele>3.98267</ele>
        <time>2011-05-13T06:03:03Z</time>
      </trkpt>
      <trkpt lat="59.3262865" lon="18.3917276">
        <ele>3.50195</ele>
        <time>2011-05-13T06:03:10Z</time>
      </trkpt>
      <trkpt lat="59.326577" lon="18.3911246">
        <ele>4.46326</ele>
        <time>2011-05-13T06:03:18Z</time>
      </trkpt>
      <trkpt lat="59.3266504" lon="18.3909756">
        <ele>4.46326</ele>
        <time>2011-05-13T06:03:20Z</time>
      </trkpt>
      <trkpt lat="59.326935" lon="18.3903236">
        <ele>4.94385</ele>
        <time>2011-05-13T06:03:28Z</time>
      </trkpt>
      <trkpt lat="59.327038" lon="18.3901215">
        <ele>4.94385</ele>
        <time>2011-05-13T06:03:31Z</time>
      </trkpt>
      <trkpt lat="59.3270221" lon="18.3899163">
        <ele>4.46326</ele>
        <time>2011-05-13T06:03:35Z</time>
      </trkpt>
      <trkpt lat="59.3269919" lon="18.389619">
        <ele>3.98267</ele>
        <time>2011-05-13T06:03:39Z</time>
      </trkpt>
      <trkpt lat="59.3270187" lon="18.3889632">
        <ele>3.50195</ele>
        <time>2011-05-13T06:03:46Z</time>
      </trkpt>
      <trkpt lat="59.3270225" lon="18.3883638">
        <ele>3.98267</ele>
        <time>2011-05-13T06:03:52Z</time>
      </trkpt>
      <trkpt lat="59.3269579" lon="18.3880319">
        <ele>4.46326</ele>
        <time>2011-05-13T06:03:56Z</time>
      </trkpt>
      <trkpt lat="59.3269283" lon="18.3878717">
        <ele>4.46326</ele>
        <time>2011-05-13T06:03:58Z</time>
      </trkpt>
      <trkpt lat="59.3269163" lon="18.3872548">
        <ele>6.38586</ele>
        <time>2011-05-13T06:04:06Z</time>
      </trkpt>
      <trkpt lat="59.3269231" lon="18.3867083">
        <ele>8.30859</ele>
        <time>2011-05-13T06:04:14Z</time>
      </trkpt>
      <trkpt lat="59.3269428" lon="18.3860728">
        <ele>10.7118</ele>
        <time>2011-05-13T06:04:23Z</time>
      </trkpt>
      <trkpt lat="59.3269552" lon="18.3859352">
        <ele>9.75061</ele>
        <time>2011-05-13T06:04:25Z</time>
      </trkpt>
      <trkpt lat="59.3271237" lon="18.3856433">
        <ele>8.78918</ele>
        <time>2011-05-13T06:04:31Z</time>
      </trkpt>
      <trkpt lat="59.3271778" lon="18.385261">
        <ele>8.30859</ele>
        <time>2011-05-13T06:04:36Z</time>
      </trkpt>
      <trkpt lat="59.3272472" lon="18.3846467">
        <ele>7.34717</ele>
        <time>2011-05-13T06:04:43Z</time>
      </trkpt>
      <trkpt lat="59.3273311" lon="18.3839543">
        <ele>6.86646</ele>
        <time>2011-05-13T06:04:51Z</time>
      </trkpt>
      <trkpt lat="59.3274096" lon="18.3834499">
        <ele>7.34717</ele>
        <time>2011-05-13T06:04:58Z</time>
      </trkpt>
      <trkpt lat="59.3274965" lon="18.3829921">
        <ele>7.82788</ele>
        <time>2011-05-13T06:05:05Z</time>
      </trkpt>
      <trkpt lat="59.3275711" lon="18.3825666">
        <ele>9.2699</ele>
        <time>2011-05-13T06:05:12Z</time>
      </trkpt>
      <trkpt lat="59.3275794" lon="18.3824816">
        <ele>9.2699</ele>
        <time>2011-05-13T06:05:16Z</time>
      </trkpt>
      <trkpt lat="59.3275715" lon="18.3824668">
        <ele>9.2699</ele>
        <time>2011-05-13T06:05:18Z</time>
      </trkpt>
      <trkpt lat="59.3275191" lon="18.3824299">
        <ele>9.2699</ele>
        <time>2011-05-13T06:05:21Z</time>
      </trkpt>
      <trkpt lat="59.3274936" lon="18.3822642">
        <ele>9.75061</ele>
        <time>2011-05-13T06:05:25Z</time>
      </trkpt>
      <trkpt lat="59.327508" lon="18.3817671">
        <ele>9.2699</ele>
        <time>2011-05-13T06:05:32Z</time>
      </trkpt>
      <trkpt lat="59.3275084" lon="18.38108">
        <ele>9.2699</ele>
        <time>2011-05-13T06:05:39Z</time>
      </trkpt>
      <trkpt lat="59.3275034" lon="18.3807481">
        <ele>8.78918</ele>
        <time>2011-05-13T06:05:42Z</time>
      </trkpt>
      <trkpt lat="59.3274747" lon="18.3803192">
        <ele>7.82788</ele>
        <time>2011-05-13T06:05:46Z</time>
      </trkpt>
      <trkpt lat="59.3274738" lon="18.3801003">
        <ele>7.82788</ele>
        <time>2011-05-13T06:05:48Z</time>
      </trkpt>
      <trkpt lat="59.3274651" lon="18.3799441">
        <ele>7.34717</ele>
        <time>2011-05-13T06:05:50Z</time>
      </trkpt>
      <trkpt lat="59.327485" lon="18.3796564">
        <ele>8.78918</ele>
        <time>2011-05-13T06:05:55Z</time>
      </trkpt>
      <trkpt lat="59.3274602" lon="18.3790743">
        <ele>12.1538</ele>
        <time>2011-05-13T06:06:03Z</time>
      </trkpt>
      <trkpt lat="59.3273929" lon="18.3784871">
        <ele>13.1151</ele>
        <time>2011-05-13T06:06:10Z</time>
      </trkpt>
      <trkpt lat="59.3273002" lon="18.3778585">
        <ele>15.5184</ele>
        <time>2011-05-13T06:06:17Z</time>
      </trkpt>
      <trkpt lat="59.3272675" lon="18.3776566">
        <ele>15.5184</ele>
        <time>2011-05-13T06:06:19Z</time>
      </trkpt>
      <trkpt lat="59.3271495" lon="18.3772644">
        <ele>14.557</ele>
        <time>2011-05-13T06:06:23Z</time>
      </trkpt>
      <trkpt lat="59.3269556" lon="18.3768111">
        <ele>11.6732</ele>
        <time>2011-05-13T06:06:27Z</time>
      </trkpt>
      <trkpt lat="59.3267991" lon="18.3760549">
        <ele>9.2699</ele>
        <time>2011-05-13T06:06:32Z</time>
      </trkpt>
      <trkpt lat="59.3267891" lon="18.375887">
        <ele>9.2699</ele>
        <time>2011-05-13T06:06:33Z</time>
      </trkpt>
      <trkpt lat="59.3268209" lon="18.3749054">
        <ele>8.30859</ele>
        <time>2011-05-13T06:06:39Z</time>
      </trkpt>
      <trkpt lat="59.3268737" lon="18.3740555">
        <ele>8.30859</ele>
        <time>2011-05-13T06:06:45Z</time>
      </trkpt>
      <trkpt lat="59.3268877" lon="18.373801">
        <ele>7.82788</ele>
        <time>2011-05-13T06:06:47Z</time>
      </trkpt>
      <trkpt lat="59.32691" lon="18.3735503">
        <ele>6.86646</ele>
        <time>2011-05-13T06:06:49Z</time>
      </trkpt>
      <trkpt lat="59.32691" lon="18.373037">
        <ele>4.94385</ele>
        <time>2011-05-13T06:06:53Z</time>
      </trkpt>
      <trkpt lat="59.3270059" lon="18.3726887">
        <ele>3.98267</ele>
        <time>2011-05-13T06:06:56Z</time>
      </trkpt>
      <trkpt lat="59.3270272" lon="18.3725692">
        <ele>3.98267</ele>
        <time>2011-05-13T06:06:57Z</time>
      </trkpt>
      <trkpt lat="59.3271306" lon="18.371778">
        <ele>2.06006</ele>
        <time>2011-05-13T06:07:03Z</time>
      </trkpt>
      <trkpt lat="59.3271846" lon="18.3714383">
        <ele>2.54065</ele>
        <time>2011-05-13T06:07:06Z</time>
      </trkpt>
      <trkpt lat="59.3273147" lon="18.3711079">
        <ele>1.57935</ele>
        <time>2011-05-13T06:07:10Z</time>
      </trkpt>
      <trkpt lat="59.3274392" lon="18.3709302">
        <ele>1.57935</ele>
        <time>2011-05-13T06:07:13Z</time>
      </trkpt>
      <trkpt lat="59.3276094" lon="18.3704503">
        <ele>2.06006</ele>
        <time>2011-05-13T06:07:19Z</time>
      </trkpt>
      <trkpt lat="59.3277598" lon="18.3699021">
        <ele>3.02124</ele>
        <time>2011-05-13T06:07:26Z</time>
      </trkpt>
      <trkpt lat="59.3279281" lon="18.3692913">
        <ele>4.46326</ele>
        <time>2011-05-13T06:07:35Z</time>
      </trkpt>
      <trkpt lat="59.3280803" lon="18.3686795">
        <ele>3.50195</ele>
        <time>2011-05-13T06:07:42Z</time>
      </trkpt>
      <trkpt lat="59.3281331" lon="18.3683687">
        <ele>3.50195</ele>
        <time>2011-05-13T06:07:45Z</time>
      </trkpt>
      <trkpt lat="59.3281473" lon="18.3676165">
        <ele>4.46326</ele>
        <time>2011-05-13T06:07:52Z</time>
      </trkpt>
      <trkpt lat="59.3280948" lon="18.3668389">
        <ele>3.50195</ele>
        <time>2011-05-13T06:07:59Z</time>
      </trkpt>
      <trkpt lat="59.3280227" lon="18.3663783">
        <ele>4.46326</ele>
        <time>2011-05-13T06:08:03Z</time>
      </trkpt>
      <trkpt lat="59.3279783" lon="18.3658818">
        <ele>3.02124</ele>
        <time>2011-05-13T06:08:07Z</time>
      </trkpt>
      <trkpt lat="59.327803" lon="18.364761">
        <ele>2.54065</ele>
        <time>2011-05-13T06:08:15Z</time>
      </trkpt>
      <trkpt lat="59.3276432" lon="18.3636558">
        <ele>3.50195</ele>
        <time>2011-05-13T06:08:23Z</time>
      </trkpt>
      <trkpt lat="59.3274933" lon="18.3626944">
        <ele>4.46326</ele>
        <time>2011-05-13T06:08:31Z</time>
      </trkpt>
      <trkpt lat="59.3273453" lon="18.3618744">
        <ele>6.38586</ele>
        <time>2011-05-13T06:08:39Z</time>
      </trkpt>
      <trkpt lat="59.327281" lon="18.3615204">
        <ele>8.30859</ele>
        <time>2011-05-13T06:08:43Z</time>
      </trkpt>
      <trkpt lat="59.3271855" lon="18.3608267">
        <ele>8.30859</ele>
        <time>2011-05-13T06:08:51Z</time>
      </trkpt>
      <trkpt lat="59.3270483" lon="18.3600784">
        <ele>6.38586</ele>
        <time>2011-05-13T06:08:59Z</time>
      </trkpt>
      <trkpt lat="59.3269846" lon="18.3595419">
        <ele>5.42456</ele>
        <time>2011-05-13T06:09:04Z</time>
      </trkpt>
      <trkpt lat="59.3270453" lon="18.3588741">
        <ele>4.46326</ele>
        <time>2011-05-13T06:09:10Z</time>
      </trkpt>
      <trkpt lat="59.3271987" lon="18.3579696">
        <ele>2.06006</ele>
        <time>2011-05-13T06:09:18Z</time>
      </trkpt>
      <trkpt lat="59.3273758" lon="18.3570978">
        <ele>0</ele>
        <time>2011-05-13T06:09:26Z</time>
      </trkpt>
      <trkpt lat="59.3275172" lon="18.3564898">
        <ele>0.618042</ele>
        <time>2011-05-13T06:09:32Z</time>
      </trkpt>
      <trkpt lat="59.3275794" lon="18.3560622">
        <ele>2.54065</ele>
        <time>2011-05-13T06:09:37Z</time>
      </trkpt>
      <trkpt lat="59.3276079" lon="18.3559189">
        <ele>3.02124</ele>
        <time>2011-05-13T06:09:39Z</time>
      </trkpt>
      <trkpt lat="59.3276334" lon="18.3557903">
        <ele>3.50195</ele>
        <time>2011-05-13T06:09:41Z</time>
      </trkpt>
      <trkpt lat="59.3277695" lon="18.3553261">
        <ele>6.38586</ele>
        <time>2011-05-13T06:09:49Z</time>
      </trkpt>
      <trkpt lat="59.3278994" lon="18.3551233">
        <ele>7.34717</ele>
        <time>2011-05-13T06:09:54Z</time>
      </trkpt>
      <trkpt lat="59.3280892" lon="18.3546593">
        <ele>9.75061</ele>
        <time>2011-05-13T06:10:02Z</time>
      </trkpt>
      <trkpt lat="59.3282863" lon="18.3541689">
        <ele>10.7118</ele>
        <time>2011-05-13T06:10:09Z</time>
      </trkpt>
      <trkpt lat="59.328457" lon="18.3537855">
        <ele>11.6732</ele>
        <time>2011-05-13T06:10:13Z</time>
      </trkpt>
      <trkpt lat="59.3288677" lon="18.3531827">
        <ele>10.2312</ele>
        <time>2011-05-13T06:10:19Z</time>
      </trkpt>
      <trkpt lat="59.3293004" lon="18.3526631">
        <ele>4.46326</ele>
        <time>2011-05-13T06:10:25Z</time>
      </trkpt>
      <trkpt lat="59.3296468" lon="18.3521229">
        <ele>0.618042</ele>
        <time>2011-05-13T06:10:31Z</time>
      </trkpt>
      <trkpt lat="59.3298576" lon="18.3517622">
        <ele>1.57935</ele>
        <time>2011-05-13T06:10:36Z</time>
      </trkpt>
      <trkpt lat="59.3300787" lon="18.3512915">
        <ele>2.06006</ele>
        <time>2011-05-13T06:10:44Z</time>
      </trkpt>
      <trkpt lat="59.3303144" lon="18.3509247">
        <ele>1.57935</ele>
        <time>2011-05-13T06:10:50Z</time>
      </trkpt>
      <trkpt lat="59.3306424" lon="18.350307">
        <ele>0</ele>
        <time>2011-05-13T06:10:57Z</time>
      </trkpt>
      <trkpt lat="59.3308376" lon="18.349943">
        <ele>0</ele>
        <time>2011-05-13T06:11:01Z</time>
      </trkpt>
      <trkpt lat="59.3311704" lon="18.3491545">
        <ele>0</ele>
        <time>2011-05-13T06:11:09Z</time>
      </trkpt>
      <trkpt lat="59.3313408" lon="18.3487915">
        <ele>0</ele>
        <time>2011-05-13T06:11:13Z</time>
      </trkpt>
      <trkpt lat="59.3314216" lon="18.3486206">
        <ele>0</ele>
        <time>2011-05-13T06:11:15Z</time>
      </trkpt>
      <trkpt lat="59.3316119" lon="18.3480071">
        <ele>0</ele>
        <time>2011-05-13T06:11:21Z</time>
      </trkpt>
      <trkpt lat="59.3316935" lon="18.3477252">
        <ele>0</ele>
        <time>2011-05-13T06:11:25Z</time>
      </trkpt>
      <trkpt lat="59.3317932" lon="18.3476472">
        <ele>0</ele>
        <time>2011-05-13T06:11:29Z</time>
      </trkpt>
      <trkpt lat="59.3318616" lon="18.3475379">
        <ele>0</ele>
        <time>2011-05-13T06:11:33Z</time>
      </trkpt>
      <trkpt lat="59.3318974" lon="18.3470371">
        <ele>0</ele>
        <time>2011-05-13T06:11:39Z</time>
      </trkpt>
      <trkpt lat="59.3319383" lon="18.3467847">
        <ele>0</ele>
        <time>2011-05-13T06:11:42Z</time>
      </trkpt>
      <trkpt lat="59.331953" lon="18.3465552">
        <ele>0</ele>
        <time>2011-05-13T06:11:45Z</time>
      </trkpt>
      <trkpt lat="59.3318753" lon="18.3462962">
        <ele>0</ele>
        <time>2011-05-13T06:11:49Z</time>
      </trkpt>
      <trkpt lat="59.331824" lon="18.3461647">
        <ele>0</ele>
        <time>2011-05-13T06:11:51Z</time>
      </trkpt>
      <trkpt lat="59.3317779" lon="18.346008">
        <ele>0</ele>
        <time>2011-05-13T06:11:53Z</time>
      </trkpt>
      <trkpt lat="59.3315852" lon="18.3452245">
        <ele>2.06006</ele>
        <time>2011-05-13T06:12:02Z</time>
      </trkpt>
      <trkpt lat="59.3314158" lon="18.3445897">
        <ele>3.02124</ele>
        <time>2011-05-13T06:12:09Z</time>
      </trkpt>
      <trkpt lat="59.3313511" lon="18.3441875">
        <ele>3.02124</ele>
        <time>2011-05-13T06:12:13Z</time>
      </trkpt>
      <trkpt lat="59.3313538" lon="18.3436906">
        <ele>3.50195</ele>
        <time>2011-05-13T06:12:18Z</time>
      </trkpt>
      <trkpt lat="59.3313853" lon="18.3435057">
        <ele>3.50195</ele>
        <time>2011-05-13T06:12:20Z</time>
      </trkpt>
      <trkpt lat="59.3314054" lon="18.342871">
        <ele>3.98267</ele>
        <time>2011-05-13T06:12:27Z</time>
      </trkpt>
      <trkpt lat="59.3314914" lon="18.3422041">
        <ele>4.94385</ele>
        <time>2011-05-13T06:12:35Z</time>
      </trkpt>
      <trkpt lat="59.3316161" lon="18.3415326">
        <ele>3.50195</ele>
        <time>2011-05-13T06:12:42Z</time>
      </trkpt>
      <trkpt lat="59.3317521" lon="18.3408643">
        <ele>1.09863</ele>
        <time>2011-05-13T06:12:48Z</time>
      </trkpt>
      <trkpt lat="59.3318236" lon="18.3406528">
        <ele>0.618042</ele>
        <time>2011-05-13T06:12:50Z</time>
      </trkpt>
      <trkpt lat="59.3319799" lon="18.3400066">
        <ele>0.137451</ele>
        <time>2011-05-13T06:12:56Z</time>
      </trkpt>
      <trkpt lat="59.3320607" lon="18.3394625">
        <ele>0.618042</ele>
        <time>2011-05-13T06:13:01Z</time>
      </trkpt>
      <trkpt lat="59.3322508" lon="18.3388398">
        <ele>1.09863</ele>
        <time>2011-05-13T06:13:08Z</time>
      </trkpt>
      <trkpt lat="59.3323985" lon="18.3385562">
        <ele>1.09863</ele>
        <time>2011-05-13T06:13:12Z</time>
      </trkpt>
      <trkpt lat="59.3327957" lon="18.3380519">
        <ele>0</ele>
        <time>2011-05-13T06:13:21Z</time>
      </trkpt>
      <trkpt lat="59.3331848" lon="18.3375169">
        <ele>0</ele>
        <time>2011-05-13T06:13:30Z</time>
      </trkpt>
      <trkpt lat="59.3334017" lon="18.3370164">
        <ele>0</ele>
        <time>2011-05-13T06:13:36Z</time>
      </trkpt>
      <trkpt lat="59.333498" lon="18.336629">
        <ele>0</ele>
        <time>2011-05-13T06:13:40Z</time>
      </trkpt>
      <trkpt lat="59.3336058" lon="18.3362235">
        <ele>0</ele>
        <time>2011-05-13T06:13:44Z</time>
      </trkpt>
      <trkpt lat="59.3337106" lon="18.3355501">
        <ele>0</ele>
        <time>2011-05-13T06:13:50Z</time>
      </trkpt>
      <trkpt lat="59.333764" lon="18.335215">
        <ele>0</ele>
        <time>2011-05-13T06:13:53Z</time>
      </trkpt>
      <trkpt lat="59.33378" lon="18.3349907">
        <ele>0</ele>
        <time>2011-05-13T06:13:55Z</time>
      </trkpt>
      <trkpt lat="59.3337928" lon="18.3347745">
        <ele>0</ele>
        <time>2011-05-13T06:13:57Z</time>
      </trkpt>
      <trkpt lat="59.3338523" lon="18.3342592">
        <ele>0.618042</ele>
        <time>2011-05-13T06:14:03Z</time>
      </trkpt>
      <trkpt lat="59.3338821" lon="18.3335532">
        <ele>0.618042</ele>
        <time>2011-05-13T06:14:10Z</time>
      </trkpt>
      <trkpt lat="59.3338043" lon="18.3328221">
        <ele>0</ele>
        <time>2011-05-13T06:14:16Z</time>
      </trkpt>
      <trkpt lat="59.3337893" lon="18.3325768">
        <ele>0</ele>
        <time>2011-05-13T06:14:18Z</time>
      </trkpt>
      <trkpt lat="59.3336915" lon="18.332137">
        <ele>0</ele>
        <time>2011-05-13T06:14:22Z</time>
      </trkpt>
      <trkpt lat="59.3334916" lon="18.3313956">
        <ele>0</ele>
        <time>2011-05-13T06:14:29Z</time>
      </trkpt>
      <trkpt lat="59.3334134" lon="18.3306818">
        <ele>0</ele>
        <time>2011-05-13T06:14:35Z</time>
      </trkpt>
      <trkpt lat="59.3334377" lon="18.3300091">
        <ele>0</ele>
        <time>2011-05-13T06:14:41Z</time>
      </trkpt>
      <trkpt lat="59.3334914" lon="18.3293655">
        <ele>0</ele>
        <time>2011-05-13T06:14:48Z</time>
      </trkpt>
      <trkpt lat="59.3335536" lon="18.3286387">
        <ele>3.02124</ele>
        <time>2011-05-13T06:14:58Z</time>
      </trkpt>
      <trkpt lat="59.3335734" lon="18.3280918">
        <ele>4.46326</ele>
        <time>2011-05-13T06:15:06Z</time>
      </trkpt>
      <trkpt lat="59.3335631" lon="18.3275593">
        <ele>6.38586</ele>
        <time>2011-05-13T06:15:14Z</time>
      </trkpt>
      <trkpt lat="59.3335713" lon="18.3271693">
        <ele>6.86646</ele>
        <time>2011-05-13T06:15:20Z</time>
      </trkpt>
      <trkpt lat="59.333549" lon="18.3267565">
        <ele>7.82788</ele>
        <time>2011-05-13T06:15:26Z</time>
      </trkpt>
      <trkpt lat="59.3335164" lon="18.3261301">
        <ele>8.78918</ele>
        <time>2011-05-13T06:15:35Z</time>
      </trkpt>
      <trkpt lat="59.333491" lon="18.3256246">
        <ele>10.7118</ele>
        <time>2011-05-13T06:15:42Z</time>
      </trkpt>
      <trkpt lat="59.3334284" lon="18.3251329">
        <ele>11.6732</ele>
        <time>2011-05-13T06:15:49Z</time>
      </trkpt>
      <trkpt lat="59.3333506" lon="18.3245334">
        <ele>14.0764</ele>
        <time>2011-05-13T06:15:58Z</time>
      </trkpt>
      <trkpt lat="59.3332615" lon="18.3239451">
        <ele>15.999</ele>
        <time>2011-05-13T06:16:07Z</time>
      </trkpt>
      <trkpt lat="59.3331582" lon="18.323434">
        <ele>17.9218</ele>
        <time>2011-05-13T06:16:15Z</time>
      </trkpt>
      <trkpt lat="59.3330326" lon="18.3229246">
        <ele>19.8444</ele>
        <time>2011-05-13T06:16:23Z</time>
      </trkpt>
      <trkpt lat="59.3329108" lon="18.3224522">
        <ele>21.767</ele>
        <time>2011-05-13T06:16:31Z</time>
      </trkpt>
      <trkpt lat="59.3327788" lon="18.3219199">
        <ele>23.209</ele>
        <time>2011-05-13T06:16:40Z</time>
      </trkpt>
      <trkpt lat="59.3326776" lon="18.3214464">
        <ele>24.651</ele>
        <time>2011-05-13T06:16:48Z</time>
      </trkpt>
      <trkpt lat="59.3325812" lon="18.3209551">
        <ele>25.6123</ele>
        <time>2011-05-13T06:16:56Z</time>
      </trkpt>
      <trkpt lat="59.332499" lon="18.3204828">
        <ele>24.1703</ele>
        <time>2011-05-13T06:17:03Z</time>
      </trkpt>
      <trkpt lat="59.3324442" lon="18.3198657">
        <ele>21.767</ele>
        <time>2011-05-13T06:17:09Z</time>
      </trkpt>
      <trkpt lat="59.3324491" lon="18.3192006">
        <ele>18.4023</ele>
        <time>2011-05-13T06:17:14Z</time>
      </trkpt>
      <trkpt lat="59.3324886" lon="18.3182506">
        <ele>15.0377</ele>
        <time>2011-05-13T06:17:20Z</time>
      </trkpt>
      <trkpt lat="59.3325328" lon="18.3170418">
        <ele>12.6344</ele>
        <time>2011-05-13T06:17:27Z</time>
      </trkpt>
      <trkpt lat="59.3325017" lon="18.3159766">
        <ele>10.7118</ele>
        <time>2011-05-13T06:17:34Z</time>
      </trkpt>
      <trkpt lat="59.3324755" lon="18.3151838">
        <ele>10.2312</ele>
        <time>2011-05-13T06:17:40Z</time>
      </trkpt>
      <trkpt lat="59.3324639" lon="18.314448">
        <ele>10.2312</ele>
        <time>2011-05-13T06:17:47Z</time>
      </trkpt>
      <trkpt lat="59.3324669" lon="18.3142765">
        <ele>10.7118</ele>
        <time>2011-05-13T06:17:49Z</time>
      </trkpt>
      <trkpt lat="59.3324943" lon="18.3139026">
        <ele>11.6732</ele>
        <time>2011-05-13T06:17:54Z</time>
      </trkpt>
      <trkpt lat="59.3325012" lon="18.3137325">
        <ele>12.1538</ele>
        <time>2011-05-13T06:17:56Z</time>
      </trkpt>
      <trkpt lat="59.3324892" lon="18.3134523">
        <ele>12.1538</ele>
        <time>2011-05-13T06:17:59Z</time>
      </trkpt>
      <trkpt lat="59.3323943" lon="18.3129319">
        <ele>11.6732</ele>
        <time>2011-05-13T06:18:04Z</time>
      </trkpt>
      <trkpt lat="59.3323237" lon="18.312163">
        <ele>10.7118</ele>
        <time>2011-05-13T06:18:10Z</time>
      </trkpt>
      <trkpt lat="59.3323486" lon="18.3112473">
        <ele>8.78918</ele>
        <time>2011-05-13T06:18:16Z</time>
      </trkpt>
      <trkpt lat="59.332459" lon="18.3103861">
        <ele>6.86646</ele>
        <time>2011-05-13T06:18:22Z</time>
      </trkpt>
      <trkpt lat="59.3326091" lon="18.3097532">
        <ele>5.42456</ele>
        <time>2011-05-13T06:18:27Z</time>
      </trkpt>
      <trkpt lat="59.3327008" lon="18.3094869">
        <ele>4.94385</ele>
        <time>2011-05-13T06:18:29Z</time>
      </trkpt>
      <trkpt lat="59.332816" lon="18.3092278">
        <ele>4.46326</ele>
        <time>2011-05-13T06:18:31Z</time>
      </trkpt>
      <trkpt lat="59.3331482" lon="18.3086282">
        <ele>4.94385</ele>
        <time>2011-05-13T06:18:36Z</time>
      </trkpt>
      <trkpt lat="59.3334035" lon="18.3081576">
        <ele>4.46326</ele>
        <time>2011-05-13T06:18:40Z</time>
      </trkpt>
      <trkpt lat="59.3335122" lon="18.3078833">
        <ele>3.98267</ele>
        <time>2011-05-13T06:18:42Z</time>
      </trkpt>
      <trkpt lat="59.3336772" lon="18.3072177">
        <ele>0.137451</ele>
        <time>2011-05-13T06:18:47Z</time>
      </trkpt>
      <trkpt lat="59.3336941" lon="18.3070866">
        <ele>0</ele>
        <time>2011-05-13T06:18:48Z</time>
      </trkpt>
      <trkpt lat="59.3337291" lon="18.3068154">
        <ele>0</ele>
        <time>2011-05-13T06:18:50Z</time>
      </trkpt>
      <trkpt lat="59.333749" lon="18.3064155">
        <ele>0</ele>
        <time>2011-05-13T06:18:53Z</time>
      </trkpt>
      <trkpt lat="59.3338021" lon="18.3058661">
        <ele>0.618042</ele>
        <time>2011-05-13T06:18:58Z</time>
      </trkpt>
      <trkpt lat="59.3338762" lon="18.3051487">
        <ele>1.09863</ele>
        <time>2011-05-13T06:19:06Z</time>
      </trkpt>
      <trkpt lat="59.3339219" lon="18.304537">
        <ele>1.09863</ele>
        <time>2011-05-13T06:19:13Z</time>
      </trkpt>
      <trkpt lat="59.333978" lon="18.3037143">
        <ele>4.94385</ele>
        <time>2011-05-13T06:19:20Z</time>
      </trkpt>
      <trkpt lat="59.3340995" lon="18.3029896">
        <ele>3.98267</ele>
        <time>2011-05-13T06:19:26Z</time>
      </trkpt>
      <trkpt lat="59.3342709" lon="18.3022825">
        <ele>2.54065</ele>
        <time>2011-05-13T06:19:32Z</time>
      </trkpt>
      <trkpt lat="59.3344565" lon="18.3017173">
        <ele>2.54065</ele>
        <time>2011-05-13T06:19:38Z</time>
      </trkpt>
      <trkpt lat="59.3347549" lon="18.3007488">
        <ele>0.618042</ele>
        <time>2011-05-13T06:19:48Z</time>
      </trkpt>
      <trkpt lat="59.3348907" lon="18.2999836">
        <ele>0</ele>
        <time>2011-05-13T06:19:54Z</time>
      </trkpt>
      <trkpt lat="59.3350573" lon="18.2992272">
        <ele>0</ele>
        <time>2011-05-13T06:20:00Z</time>
      </trkpt>
      <trkpt lat="59.3351919" lon="18.2987866">
        <ele>0</ele>
        <time>2011-05-13T06:20:04Z</time>
      </trkpt>
      <trkpt lat="59.3353418" lon="18.2981032">
        <ele>0</ele>
        <time>2011-05-13T06:20:11Z</time>
      </trkpt>
      <trkpt lat="59.3354491" lon="18.2975261">
        <ele>0</ele>
        <time>2011-05-13T06:20:18Z</time>
      </trkpt>
      <trkpt lat="59.3354734" lon="18.2973722">
        <ele>0.137451</ele>
        <time>2011-05-13T06:20:20Z</time>
      </trkpt>
      <trkpt lat="59.3355801" lon="18.2968506">
        <ele>2.06006</ele>
        <time>2011-05-13T06:20:28Z</time>
      </trkpt>
      <trkpt lat="59.3356971" lon="18.2964879">
        <ele>3.50195</ele>
        <time>2011-05-13T06:20:35Z</time>
      </trkpt>
      <trkpt lat="59.3357545" lon="18.29612">
        <ele>3.98267</ele>
        <time>2011-05-13T06:20:41Z</time>
      </trkpt>
      <trkpt lat="59.3357993" lon="18.2956836">
        <ele>4.94385</ele>
        <time>2011-05-13T06:20:48Z</time>
      </trkpt>
      <trkpt lat="59.3357661" lon="18.2952935">
        <ele>4.94385</ele>
        <time>2011-05-13T06:20:54Z</time>
      </trkpt>
      <trkpt lat="59.3356791" lon="18.2949511">
        <ele>5.90527</ele>
        <time>2011-05-13T06:20:59Z</time>
      </trkpt>
      <trkpt lat="59.3355542" lon="18.2944356">
        <ele>6.38586</ele>
        <time>2011-05-13T06:21:06Z</time>
      </trkpt>
      <trkpt lat="59.3355324" lon="18.2943624">
        <ele>6.38586</ele>
        <time>2011-05-13T06:21:07Z</time>
      </trkpt>
      <trkpt lat="59.3353061" lon="18.2937803">
        <ele>6.38586</ele>
        <time>2011-05-13T06:21:15Z</time>
      </trkpt>
      <trkpt lat="59.335045" lon="18.2931142">
        <ele>5.42456</ele>
        <time>2011-05-13T06:21:23Z</time>
      </trkpt>
      <trkpt lat="59.3349528" lon="18.2927154">
        <ele>4.46326</ele>
        <time>2011-05-13T06:21:27Z</time>
      </trkpt>
      <trkpt lat="59.3347663" lon="18.292208">
        <ele>4.94385</ele>
        <time>2011-05-13T06:21:33Z</time>
      </trkpt>
      <trkpt lat="59.3346594" lon="18.292006">
        <ele>5.42456</ele>
        <time>2011-05-13T06:21:36Z</time>
      </trkpt>
      <trkpt lat="59.3343768" lon="18.2912383">
        <ele>6.38586</ele>
        <time>2011-05-13T06:21:45Z</time>
      </trkpt>
      <trkpt lat="59.3342108" lon="18.2904862">
        <ele>6.38586</ele>
        <time>2011-05-13T06:21:52Z</time>
      </trkpt>
      <trkpt lat="59.3340789" lon="18.2894866">
        <ele>5.42456</ele>
        <time>2011-05-13T06:22:01Z</time>
      </trkpt>
      <trkpt lat="59.3340191" lon="18.2890432">
        <ele>4.94385</ele>
        <time>2011-05-13T06:22:05Z</time>
      </trkpt>
      <trkpt lat="59.3340137" lon="18.2887101">
        <ele>4.94385</ele>
        <time>2011-05-13T06:22:08Z</time>
      </trkpt>
      <trkpt lat="59.3339785" lon="18.2881673">
        <ele>4.46326</ele>
        <time>2011-05-13T06:22:13Z</time>
      </trkpt>
      <trkpt lat="59.3338545" lon="18.2876884">
        <ele>5.42456</ele>
        <time>2011-05-13T06:22:18Z</time>
      </trkpt>
      <trkpt lat="59.3337536" lon="18.2870401">
        <ele>5.90527</ele>
        <time>2011-05-13T06:22:25Z</time>
      </trkpt>
      <trkpt lat="59.3336588" lon="18.2864001">
        <ele>6.86646</ele>
        <time>2011-05-13T06:22:33Z</time>
      </trkpt>
      <trkpt lat="59.3336508" lon="18.286325">
        <ele>6.86646</ele>
        <time>2011-05-13T06:22:34Z</time>
      </trkpt>
      <trkpt lat="59.3335382" lon="18.2859503">
        <ele>8.78918</ele>
        <time>2011-05-13T06:22:40Z</time>
      </trkpt>
      <trkpt lat="59.3333787" lon="18.2856232">
        <ele>11.1925</ele>
        <time>2011-05-13T06:22:47Z</time>
      </trkpt>
      <trkpt lat="59.3332475" lon="18.2853095">
        <ele>12.1538</ele>
        <time>2011-05-13T06:22:53Z</time>
      </trkpt>
      <trkpt lat="59.3330781" lon="18.2849156">
        <ele>13.5958</ele>
        <time>2011-05-13T06:23:00Z</time>
      </trkpt>
      <trkpt lat="59.332931" lon="18.284526">
        <ele>14.0764</ele>
        <time>2011-05-13T06:23:06Z</time>
      </trkpt>
      <trkpt lat="59.3328656" lon="18.2844215">
        <ele>15.0377</ele>
        <time>2011-05-13T06:23:08Z</time>
      </trkpt>
      <trkpt lat="59.3325989" lon="18.284118">
        <ele>16.4797</ele>
        <time>2011-05-13T06:23:15Z</time>
      </trkpt>
      <trkpt lat="59.3324175" lon="18.283961">
        <ele>15.999</ele>
        <time>2011-05-13T06:23:19Z</time>
      </trkpt>
      <trkpt lat="59.3321399" lon="18.2838557">
        <ele>17.4412</ele>
        <time>2011-05-13T06:23:24Z</time>
      </trkpt>
      <trkpt lat="59.3315356" lon="18.2838368">
        <ele>15.0377</ele>
        <time>2011-05-13T06:23:34Z</time>
      </trkpt>
      <trkpt lat="59.331197" lon="18.2838657">
        <ele>15.5184</ele>
        <time>2011-05-13T06:23:40Z</time>
      </trkpt>
      <trkpt lat="59.3308724" lon="18.2838709">
        <ele>15.0377</ele>
        <time>2011-05-13T06:23:47Z</time>
      </trkpt>
      <trkpt lat="59.330644" lon="18.283857">
        <ele>15.999</ele>
        <time>2011-05-13T06:23:52Z</time>
      </trkpt>
      <trkpt lat="59.3302693" lon="18.2837409">
        <ele>17.9218</ele>
        <time>2011-05-13T06:24:01Z</time>
      </trkpt>
      <trkpt lat="59.3299851" lon="18.2836088">
        <ele>18.4023</ele>
        <time>2011-05-13T06:24:08Z</time>
      </trkpt>
      <trkpt lat="59.3296598" lon="18.2833459">
        <ele>17.9218</ele>
        <time>2011-05-13T06:24:15Z</time>
      </trkpt>
      <trkpt lat="59.3296147" lon="18.2833022">
        <ele>17.9218</ele>
        <time>2011-05-13T06:24:16Z</time>
      </trkpt>
      <trkpt lat="59.3293909" lon="18.2829308">
        <ele>16.4797</ele>
        <time>2011-05-13T06:24:22Z</time>
      </trkpt>
      <trkpt lat="59.3291843" lon="18.2824407">
        <ele>14.557</ele>
        <time>2011-05-13T06:24:28Z</time>
      </trkpt>
      <trkpt lat="59.32912" lon="18.2821532">
        <ele>14.0764</ele>
        <time>2011-05-13T06:24:31Z</time>
      </trkpt>
      <trkpt lat="59.3289908" lon="18.2817275">
        <ele>13.5958</ele>
        <time>2011-05-13T06:24:36Z</time>
      </trkpt>
      <trkpt lat="59.3289014" lon="18.281474">
        <ele>13.5958</ele>
        <time>2011-05-13T06:24:39Z</time>
      </trkpt>
      <trkpt lat="59.3286077" lon="18.2808694">
        <ele>15.0377</ele>
        <time>2011-05-13T06:24:47Z</time>
      </trkpt>
      <trkpt lat="59.3284124" lon="18.2804301">
        <ele>15.999</ele>
        <time>2011-05-13T06:24:53Z</time>
      </trkpt>
      <trkpt lat="59.3281788" lon="18.2798396">
        <ele>15.999</ele>
        <time>2011-05-13T06:25:00Z</time>
      </trkpt>
      <trkpt lat="59.3278134" lon="18.278943">
        <ele>15.5184</ele>
        <time>2011-05-13T06:25:10Z</time>
      </trkpt>
      <trkpt lat="59.3275399" lon="18.2783191">
        <ele>15.5184</ele>
        <time>2011-05-13T06:25:17Z</time>
      </trkpt>
      <trkpt lat="59.3273374" lon="18.277723">
        <ele>15.0377</ele>
        <time>2011-05-13T06:25:23Z</time>
      </trkpt>
      <trkpt lat="59.3270112" lon="18.2767845">
        <ele>14.557</ele>
        <time>2011-05-13T06:25:33Z</time>
      </trkpt>
      <trkpt lat="59.3268315" lon="18.2763552">
        <ele>15.5184</ele>
        <time>2011-05-13T06:25:38Z</time>
      </trkpt>
      <trkpt lat="59.3266682" lon="18.2757997">
        <ele>15.5184</ele>
        <time>2011-05-13T06:25:44Z</time>
      </trkpt>
      <trkpt lat="59.3264844" lon="18.2751031">
        <ele>15.0377</ele>
        <time>2011-05-13T06:25:51Z</time>
      </trkpt>
      <trkpt lat="59.3263897" lon="18.2748104">
        <ele>15.0377</ele>
        <time>2011-05-13T06:25:54Z</time>
      </trkpt>
      <trkpt lat="59.3261922" lon="18.2740368">
        <ele>16.9604</ele>
        <time>2011-05-13T06:26:02Z</time>
      </trkpt>
      <trkpt lat="59.3260413" lon="18.2734261">
        <ele>16.9604</ele>
        <time>2011-05-13T06:26:09Z</time>
      </trkpt>
      <trkpt lat="59.3259675" lon="18.2731434">
        <ele>16.9604</ele>
        <time>2011-05-13T06:26:12Z</time>
      </trkpt>
      <trkpt lat="59.3259288" lon="18.272614">
        <ele>16.9604</ele>
        <time>2011-05-13T06:26:17Z</time>
      </trkpt>
      <trkpt lat="59.3258913" lon="18.2723095">
        <ele>16.9604</ele>
        <time>2011-05-13T06:26:20Z</time>
      </trkpt>
      <trkpt lat="59.3257724" lon="18.2720891">
        <ele>16.4797</ele>
        <time>2011-05-13T06:26:23Z</time>
      </trkpt>
      <trkpt lat="59.3257415" lon="18.2719996">
        <ele>16.4797</ele>
        <time>2011-05-13T06:26:24Z</time>
      </trkpt>
      <trkpt lat="59.3255621" lon="18.2712563">
        <ele>15.999</ele>
        <time>2011-05-13T06:26:32Z</time>
      </trkpt>
      <trkpt lat="59.3254228" lon="18.2704808">
        <ele>14.557</ele>
        <time>2011-05-13T06:26:39Z</time>
      </trkpt>
      <trkpt lat="59.3253086" lon="18.2698105">
        <ele>16.9604</ele>
        <time>2011-05-13T06:26:45Z</time>
      </trkpt>
      <trkpt lat="59.3251443" lon="18.2688152">
        <ele>15.0377</ele>
        <time>2011-05-13T06:26:54Z</time>
      </trkpt>
      <trkpt lat="59.3251086" lon="18.2686009">
        <ele>15.0377</ele>
        <time>2011-05-13T06:26:56Z</time>
      </trkpt>
      <trkpt lat="59.324937" lon="18.2677978">
        <ele>15.0377</ele>
        <time>2011-05-13T06:27:04Z</time>
      </trkpt>
      <trkpt lat="59.32476" lon="18.2668076">
        <ele>14.557</ele>
        <time>2011-05-13T06:27:14Z</time>
      </trkpt>
      <trkpt lat="59.3246198" lon="18.2661972">
        <ele>15.5184</ele>
        <time>2011-05-13T06:27:21Z</time>
      </trkpt>
      <trkpt lat="59.3245278" lon="18.2656989">
        <ele>16.9604</ele>
        <time>2011-05-13T06:27:28Z</time>
      </trkpt>
      <trkpt lat="59.3245162" lon="18.2656328">
        <ele>17.4412</ele>
        <time>2011-05-13T06:27:29Z</time>
      </trkpt>
      <trkpt lat="59.3244076" lon="18.2650639">
        <ele>20.8057</ele>
        <time>2011-05-13T06:27:38Z</time>
      </trkpt>
      <trkpt lat="59.3243095" lon="18.264605">
        <ele>23.6896</ele>
        <time>2011-05-13T06:27:46Z</time>
      </trkpt>
      <trkpt lat="59.3241906" lon="18.2640544">
        <ele>26.0929</ele>
        <time>2011-05-13T06:27:55Z</time>
      </trkpt>
      <trkpt lat="59.3240538" lon="18.2634369">
        <ele>28.4962</ele>
        <time>2011-05-13T06:28:05Z</time>
      </trkpt>
      <trkpt lat="59.3239113" lon="18.2627652">
        <ele>31.3801</ele>
        <time>2011-05-13T06:28:16Z</time>
      </trkpt>
      <trkpt lat="59.3237964" lon="18.262217">
        <ele>33.3029</ele>
        <time>2011-05-13T06:28:25Z</time>
      </trkpt>
      <trkpt lat="59.3236814" lon="18.2616737">
        <ele>35.2255</ele>
        <time>2011-05-13T06:28:34Z</time>
      </trkpt>
      <trkpt lat="59.3235841" lon="18.2610736">
        <ele>36.1868</ele>
        <time>2011-05-13T06:28:44Z</time>
      </trkpt>
      <trkpt lat="59.3234774" lon="18.2606206">
        <ele>36.1868</ele>
        <time>2011-05-13T06:28:51Z</time>
      </trkpt>
      <trkpt lat="59.3233452" lon="18.2601387">
        <ele>35.7061</ele>
        <time>2011-05-13T06:28:58Z</time>
      </trkpt>
      <trkpt lat="59.3231923" lon="18.2596228">
        <ele>35.2255</ele>
        <time>2011-05-13T06:29:05Z</time>
      </trkpt>
      <trkpt lat="59.3230945" lon="18.2593146">
        <ele>35.2255</ele>
        <time>2011-05-13T06:29:09Z</time>
      </trkpt>
      <trkpt lat="59.3229769" lon="18.2589117">
        <ele>35.2255</ele>
        <time>2011-05-13T06:29:14Z</time>
      </trkpt>
      <trkpt lat="59.3229215" lon="18.2586432">
        <ele>35.2255</ele>
        <time>2011-05-13T06:29:17Z</time>
      </trkpt>
      <trkpt lat="59.3228705" lon="18.2584773">
        <ele>35.2255</ele>
        <time>2011-05-13T06:29:19Z</time>
      </trkpt>
      <trkpt lat="59.3227485" lon="18.2580355">
        <ele>35.2255</ele>
        <time>2011-05-13T06:29:24Z</time>
      </trkpt>
      <trkpt lat="59.3226097" lon="18.2574928">
        <ele>32.8223</ele>
        <time>2011-05-13T06:29:30Z</time>
      </trkpt>
      <trkpt lat="59.3224744" lon="18.2569442">
        <ele>32.8223</ele>
        <time>2011-05-13T06:29:36Z</time>
      </trkpt>
      <trkpt lat="59.3222905" lon="18.2560947">
        <ele>32.8223</ele>
        <time>2011-05-13T06:29:45Z</time>
      </trkpt>
      <trkpt lat="59.3222481" lon="18.2559057">
        <ele>32.3416</ele>
        <time>2011-05-13T06:29:47Z</time>
      </trkpt>
      <trkpt lat="59.3221166" lon="18.255616">
        <ele>32.3416</ele>
        <time>2011-05-13T06:29:51Z</time>
      </trkpt>
      <trkpt lat="59.3220904" lon="18.2555258">
        <ele>32.3416</ele>
        <time>2011-05-13T06:29:52Z</time>
      </trkpt>
      <trkpt lat="59.3219891" lon="18.2551506">
        <ele>32.3416</ele>
        <time>2011-05-13T06:29:56Z</time>
      </trkpt>
      <trkpt lat="59.3217958" lon="18.2544501">
        <ele>32.3416</ele>
        <time>2011-05-13T06:30:03Z</time>
      </trkpt>
      <trkpt lat="59.321677" lon="18.2538772">
        <ele>32.3416</ele>
        <time>2011-05-13T06:30:08Z</time>
      </trkpt>
      <trkpt lat="59.3215736" lon="18.2535857">
        <ele>31.3801</ele>
        <time>2011-05-13T06:30:11Z</time>
      </trkpt>
      <trkpt lat="59.3214496" lon="18.2533238">
        <ele>31.8607</ele>
        <time>2011-05-13T06:30:14Z</time>
      </trkpt>
      <trkpt lat="59.3213156" lon="18.2528263">
        <ele>31.3801</ele>
        <time>2011-05-13T06:30:19Z</time>
      </trkpt>
      <trkpt lat="59.3211162" lon="18.2520517">
        <ele>31.8607</ele>
        <time>2011-05-13T06:30:27Z</time>
      </trkpt>
      <trkpt lat="59.3209349" lon="18.2513808">
        <ele>32.3416</ele>
        <time>2011-05-13T06:30:34Z</time>
      </trkpt>
      <trkpt lat="59.3207439" lon="18.2506735">
        <ele>33.3029</ele>
        <time>2011-05-13T06:30:42Z</time>
      </trkpt>
      <trkpt lat="59.3205877" lon="18.250041">
        <ele>35.2255</ele>
        <time>2011-05-13T06:30:50Z</time>
      </trkpt>
      <trkpt lat="59.3204504" lon="18.2494047">
        <ele>37.1481</ele>
        <time>2011-05-13T06:30:58Z</time>
      </trkpt>
      <trkpt lat="59.3203299" lon="18.2486628">
        <ele>38.1094</ele>
        <time>2011-05-13T06:31:07Z</time>
      </trkpt>
      <trkpt lat="59.3201787" lon="18.2481446">
        <ele>39.5513</ele>
        <time>2011-05-13T06:31:14Z</time>
      </trkpt>
      <trkpt lat="59.3200221" lon="18.2474578">
        <ele>40.5128</ele>
        <time>2011-05-13T06:31:23Z</time>
      </trkpt>
      <trkpt lat="59.3199015" lon="18.246935">
        <ele>41.474</ele>
        <time>2011-05-13T06:31:30Z</time>
      </trkpt>
      <trkpt lat="59.319775" lon="18.2464155">
        <ele>41.474</ele>
        <time>2011-05-13T06:31:37Z</time>
      </trkpt>
      <trkpt lat="59.3196172" lon="18.2458016">
        <ele>41.474</ele>
        <time>2011-05-13T06:31:45Z</time>
      </trkpt>
      <trkpt lat="59.319467" lon="18.2452745">
        <ele>42.4354</ele>
        <time>2011-05-13T06:31:52Z</time>
      </trkpt>
      <trkpt lat="59.3192612" lon="18.244583">
        <ele>42.4354</ele>
        <time>2011-05-13T06:32:01Z</time>
      </trkpt>
      <trkpt lat="59.3190466" lon="18.2438205">
        <ele>42.4354</ele>
        <time>2011-05-13T06:32:10Z</time>
      </trkpt>
      <trkpt lat="59.318855" lon="18.2431916">
        <ele>42.4354</ele>
        <time>2011-05-13T06:32:17Z</time>
      </trkpt>
      <trkpt lat="59.3188079" lon="18.2430085">
        <ele>42.4354</ele>
        <time>2011-05-13T06:32:19Z</time>
      </trkpt>
      <trkpt lat="59.3185827" lon="18.2424385">
        <ele>42.4354</ele>
        <time>2011-05-13T06:32:26Z</time>
      </trkpt>
      <trkpt lat="59.3183199" lon="18.2416142">
        <ele>42.916</ele>
        <time>2011-05-13T06:32:35Z</time>
      </trkpt>
      <trkpt lat="59.3181029" lon="18.240929">
        <ele>42.916</ele>
        <time>2011-05-13T06:32:42Z</time>
      </trkpt>
      <trkpt lat="59.3178139" lon="18.240053">
        <ele>42.916</ele>
        <time>2011-05-13T06:32:51Z</time>
      </trkpt>
      <trkpt lat="59.3175397" lon="18.2393059">
        <ele>42.4354</ele>
        <time>2011-05-13T06:32:59Z</time>
      </trkpt>
      <trkpt lat="59.3172507" lon="18.2386201">
        <ele>41.9547</ele>
        <time>2011-05-13T06:33:07Z</time>
      </trkpt>
      <trkpt lat="59.317001" lon="18.2381254">
        <ele>41.9547</ele>
        <time>2011-05-13T06:33:13Z</time>
      </trkpt>
      <trkpt lat="59.3166998" lon="18.2374985">
        <ele>40.9934</ele>
        <time>2011-05-13T06:33:20Z</time>
      </trkpt>
      <trkpt lat="59.3164493" lon="18.2368263">
        <ele>39.5513</ele>
        <time>2011-05-13T06:33:26Z</time>
      </trkpt>
      <trkpt lat="59.3162669" lon="18.236005">
        <ele>37.6287</ele>
        <time>2011-05-13T06:33:32Z</time>
      </trkpt>
      <trkpt lat="59.3160951" lon="18.2349215">
        <ele>35.7061</ele>
        <time>2011-05-13T06:33:40Z</time>
      </trkpt>
      <trkpt lat="59.315979" lon="18.2341548">
        <ele>34.7449</ele>
        <time>2011-05-13T06:33:46Z</time>
      </trkpt>
      <trkpt lat="59.3159618" lon="18.2337688">
        <ele>33.7834</ele>
        <time>2011-05-13T06:33:50Z</time>
      </trkpt>
      <trkpt lat="59.315948" lon="18.2336809">
        <ele>33.7834</ele>
        <time>2011-05-13T06:33:51Z</time>
      </trkpt>
      <trkpt lat="59.3158831" lon="18.2334125">
        <ele>33.3029</ele>
        <time>2011-05-13T06:33:54Z</time>
      </trkpt>
      <trkpt lat="59.3158416" lon="18.2329765">
        <ele>32.8223</ele>
        <time>2011-05-13T06:33:58Z</time>
      </trkpt>
      <trkpt lat="59.3157798" lon="18.232535">
        <ele>32.8223</ele>
        <time>2011-05-13T06:34:02Z</time>
      </trkpt>
      <trkpt lat="59.3156238" lon="18.2316696">
        <ele>30.8995</ele>
        <time>2011-05-13T06:34:09Z</time>
      </trkpt>
      <trkpt lat="59.3154925" lon="18.2307746">
        <ele>28.4962</ele>
        <time>2011-05-13T06:34:15Z</time>
      </trkpt>
      <trkpt lat="59.3153788" lon="18.2298228">
        <ele>26.5736</ele>
        <time>2011-05-13T06:34:21Z</time>
      </trkpt>
      <trkpt lat="59.3152938" lon="18.2288039">
        <ele>25.1317</ele>
        <time>2011-05-13T06:34:28Z</time>
      </trkpt>
      <trkpt lat="59.3153102" lon="18.2283289">
        <ele>23.6896</ele>
        <time>2011-05-13T06:34:33Z</time>
      </trkpt>
      <trkpt lat="59.3152908" lon="18.2282208">
        <ele>23.209</ele>
        <time>2011-05-13T06:34:36Z</time>
      </trkpt>
      <trkpt lat="59.3152058" lon="18.2279196">
        <ele>23.6896</ele>
        <time>2011-05-13T06:34:42Z</time>
      </trkpt>
      <trkpt lat="59.3150726" lon="18.2274988">
        <ele>24.651</ele>
        <time>2011-05-13T06:34:48Z</time>
      </trkpt>
      <trkpt lat="59.3148493" lon="18.2266541">
        <ele>28.4962</ele>
        <time>2011-05-13T06:34:58Z</time>
      </trkpt>
      <trkpt lat="59.3147287" lon="18.2263485">
        <ele>28.9769</ele>
        <time>2011-05-13T06:35:02Z</time>
      </trkpt>
      <trkpt lat="59.3145106" lon="18.2256419">
        <ele>31.3801</ele>
        <time>2011-05-13T06:35:11Z</time>
      </trkpt>
      <trkpt lat="59.3143979" lon="18.2249256">
        <ele>32.3416</ele>
        <time>2011-05-13T06:35:19Z</time>
      </trkpt>
      <trkpt lat="59.3143781" lon="18.2243381">
        <ele>32.3416</ele>
        <time>2011-05-13T06:35:25Z</time>
      </trkpt>
      <trkpt lat="59.3143607" lon="18.2236743">
        <ele>32.8223</ele>
        <time>2011-05-13T06:35:32Z</time>
      </trkpt>
      <trkpt lat="59.3143425" lon="18.2229361">
        <ele>33.7834</ele>
        <time>2011-05-13T06:35:41Z</time>
      </trkpt>
      <trkpt lat="59.3143209" lon="18.2223291">
        <ele>34.2642</ele>
        <time>2011-05-13T06:35:49Z</time>
      </trkpt>
      <trkpt lat="59.3143048" lon="18.2216818">
        <ele>33.7834</ele>
        <time>2011-05-13T06:35:57Z</time>
      </trkpt>
      <trkpt lat="59.3142945" lon="18.220925">
        <ele>33.3029</ele>
        <time>2011-05-13T06:36:05Z</time>
      </trkpt>
      <trkpt lat="59.3142764" lon="18.2201695">
        <ele>31.3801</ele>
        <time>2011-05-13T06:36:12Z</time>
      </trkpt>
      <trkpt lat="59.3142589" lon="18.2193854">
        <ele>29.4575</ele>
        <time>2011-05-13T06:36:18Z</time>
      </trkpt>
      <trkpt lat="59.31424" lon="18.2181489">
        <ele>27.0543</ele>
        <time>2011-05-13T06:36:27Z</time>
      </trkpt>
      <trkpt lat="59.3142769" lon="18.2172102">
        <ele>28.0155</ele>
        <time>2011-05-13T06:36:34Z</time>
      </trkpt>
      <trkpt lat="59.3143411" lon="18.2167211">
        <ele>28.9769</ele>
        <time>2011-05-13T06:36:38Z</time>
      </trkpt>
      <trkpt lat="59.3145865" lon="18.2159291">
        <ele>26.5736</ele>
        <time>2011-05-13T06:36:45Z</time>
      </trkpt>
      <trkpt lat="59.314839" lon="18.2152179">
        <ele>22.7283</ele>
        <time>2011-05-13T06:36:51Z</time>
      </trkpt>
      <trkpt lat="59.3148344" lon="18.2148932">
        <ele>21.767</ele>
        <time>2011-05-13T06:36:55Z</time>
      </trkpt>
      <trkpt lat="59.3147649" lon="18.2147823">
        <ele>22.7283</ele>
        <time>2011-05-13T06:36:57Z</time>
      </trkpt>
      <trkpt lat="59.3146077" lon="18.2146056">
        <ele>23.209</ele>
        <time>2011-05-13T06:37:01Z</time>
      </trkpt>
      <trkpt lat="59.3145125" lon="18.2144012">
        <ele>23.209</ele>
        <time>2011-05-13T06:37:08Z</time>
      </trkpt>
      <trkpt lat="59.3140206" lon="18.2140343">
        <ele>22.2476</ele>
        <time>2011-05-13T06:37:15Z</time>
      </trkpt>
      <trkpt lat="59.313919" lon="18.2136028">
        <ele>20.8057</ele>
        <time>2011-05-13T06:37:20Z</time>
      </trkpt>
      <trkpt lat="59.3138402" lon="18.2132498">
        <ele>20.325</ele>
        <time>2011-05-13T06:37:24Z</time>
      </trkpt>
      <trkpt lat="59.3135574" lon="18.2126135">
        <ele>18.4023</ele>
        <time>2011-05-13T06:37:32Z</time>
      </trkpt>
      <trkpt lat="59.3132487" lon="18.2120724">
        <ele>15.999</ele>
        <time>2011-05-13T06:37:38Z</time>
      </trkpt>
      <trkpt lat="59.3131565" lon="18.2118657">
        <ele>15.0377</ele>
        <time>2011-05-13T06:37:40Z</time>
      </trkpt>
      <trkpt lat="59.3131305" lon="18.2115152">
        <ele>14.557</ele>
        <time>2011-05-13T06:37:44Z</time>
      </trkpt>
      <trkpt lat="59.3131636" lon="18.2114515">
        <ele>15.0377</ele>
        <time>2011-05-13T06:37:45Z</time>
      </trkpt>
      <trkpt lat="59.3132676" lon="18.2112598">
        <ele>14.557</ele>
        <time>2011-05-13T06:37:48Z</time>
      </trkpt>
      <trkpt lat="59.3133609" lon="18.2109299">
        <ele>13.5958</ele>
        <time>2011-05-13T06:37:52Z</time>
      </trkpt>
      <trkpt lat="59.3132706" lon="18.2107381">
        <ele>14.0764</ele>
        <time>2011-05-13T06:37:55Z</time>
      </trkpt>
      <trkpt lat="59.3129887" lon="18.2102623">
        <ele>16.9604</ele>
        <time>2011-05-13T06:38:04Z</time>
      </trkpt>
      <trkpt lat="59.3128249" lon="18.2099421">
        <ele>19.8444</ele>
        <time>2011-05-13T06:38:11Z</time>
      </trkpt>
      <trkpt lat="59.312697" lon="18.209699">
        <ele>22.7283</ele>
        <time>2011-05-13T06:38:17Z</time>
      </trkpt>
      <trkpt lat="59.3125476" lon="18.209406">
        <ele>25.1317</ele>
        <time>2011-05-13T06:38:24Z</time>
      </trkpt>
      <trkpt lat="59.3124209" lon="18.2091251">
        <ele>26.5736</ele>
        <time>2011-05-13T06:38:30Z</time>
      </trkpt>
      <trkpt lat="59.3122805" lon="18.2088481">
        <ele>27.5349</ele>
        <time>2011-05-13T06:38:36Z</time>
      </trkpt>
      <trkpt lat="59.3121425" lon="18.2086277">
        <ele>29.4575</ele>
        <time>2011-05-13T06:38:42Z</time>
      </trkpt>
      <trkpt lat="59.3120292" lon="18.2082766">
        <ele>31.3801</ele>
        <time>2011-05-13T06:38:49Z</time>
      </trkpt>
      <trkpt lat="59.3118497" lon="18.2078693">
        <ele>34.2642</ele>
        <time>2011-05-13T06:38:58Z</time>
      </trkpt>
      <trkpt lat="59.3116713" lon="18.2075857">
        <ele>34.7449</ele>
        <time>2011-05-13T06:39:05Z</time>
      </trkpt>
      <trkpt lat="59.3115181" lon="18.2072619">
        <ele>35.7061</ele>
        <time>2011-05-13T06:39:12Z</time>
      </trkpt>
      <trkpt lat="59.3113695" lon="18.2068697">
        <ele>37.1481</ele>
        <time>2011-05-13T06:39:20Z</time>
      </trkpt>
      <trkpt lat="59.3112653" lon="18.2065746">
        <ele>37.6287</ele>
        <time>2011-05-13T06:39:26Z</time>
      </trkpt>
      <trkpt lat="59.3111281" lon="18.2060799">
        <ele>36.6675</ele>
        <time>2011-05-13T06:39:35Z</time>
      </trkpt>
      <trkpt lat="59.3110326" lon="18.2055763">
        <ele>36.1868</ele>
        <time>2011-05-13T06:39:43Z</time>
      </trkpt>
      <trkpt lat="59.3109581" lon="18.2050451">
        <ele>36.1868</ele>
        <time>2011-05-13T06:39:50Z</time>
      </trkpt>
      <trkpt lat="59.3108881" lon="18.2044908">
        <ele>34.2642</ele>
        <time>2011-05-13T06:39:56Z</time>
      </trkpt>
      <trkpt lat="59.3108131" lon="18.2038091">
        <ele>33.3029</ele>
        <time>2011-05-13T06:40:02Z</time>
      </trkpt>
      <trkpt lat="59.3106969" lon="18.202881">
        <ele>28.9769</ele>
        <time>2011-05-13T06:40:09Z</time>
      </trkpt>
      <trkpt lat="59.3105877" lon="18.2017733">
        <ele>26.0929</ele>
        <time>2011-05-13T06:40:16Z</time>
      </trkpt>
      <trkpt lat="59.3105099" lon="18.2007287">
        <ele>24.1703</ele>
        <time>2011-05-13T06:40:22Z</time>
      </trkpt>
      <trkpt lat="59.3104997" lon="18.2005789">
        <ele>24.1703</ele>
        <time>2011-05-13T06:40:23Z</time>
      </trkpt>
      <trkpt lat="59.3105503" lon="18.2001414">
        <ele>23.6896</ele>
        <time>2011-05-13T06:40:27Z</time>
      </trkpt>
      <trkpt lat="59.3105215" lon="18.1995755">
        <ele>24.651</ele>
        <time>2011-05-13T06:40:33Z</time>
      </trkpt>
      <trkpt lat="59.3103971" lon="18.1989906">
        <ele>26.0929</ele>
        <time>2011-05-13T06:40:40Z</time>
      </trkpt>
      <trkpt lat="59.3102966" lon="18.1985462">
        <ele>25.6123</ele>
        <time>2011-05-13T06:40:45Z</time>
      </trkpt>
      <trkpt lat="59.3102062" lon="18.198216">
        <ele>26.0929</ele>
        <time>2011-05-13T06:40:49Z</time>
      </trkpt>
      <trkpt lat="59.3101117" lon="18.1974865">
        <ele>27.5349</ele>
        <time>2011-05-13T06:40:57Z</time>
      </trkpt>
      <trkpt lat="59.3100084" lon="18.1965702">
        <ele>28.0155</ele>
        <time>2011-05-13T06:41:07Z</time>
      </trkpt>
      <trkpt lat="59.3099185" lon="18.1958256">
        <ele>27.5349</ele>
        <time>2011-05-13T06:41:15Z</time>
      </trkpt>
      <trkpt lat="59.3098079" lon="18.1949155">
        <ele>27.5349</ele>
        <time>2011-05-13T06:41:24Z</time>
      </trkpt>
      <trkpt lat="59.309721" lon="18.1940809">
        <ele>28.0155</ele>
        <time>2011-05-13T06:41:32Z</time>
      </trkpt>
      <trkpt lat="59.3096677" lon="18.1933599">
        <ele>28.9769</ele>
        <time>2011-05-13T06:41:39Z</time>
      </trkpt>
      <trkpt lat="59.3095903" lon="18.192633">
        <ele>31.8607</ele>
        <time>2011-05-13T06:41:46Z</time>
      </trkpt>
      <trkpt lat="59.3095268" lon="18.1918826">
        <ele>32.8223</ele>
        <time>2011-05-13T06:41:53Z</time>
      </trkpt>
      <trkpt lat="59.309508" lon="18.1916392">
        <ele>32.3416</ele>
        <time>2011-05-13T06:41:55Z</time>
      </trkpt>
      <trkpt lat="59.3094226" lon="18.1912552">
        <ele>32.3416</ele>
        <time>2011-05-13T06:42:00Z</time>
      </trkpt>
      <trkpt lat="59.3093277" lon="18.1905067">
        <ele>35.2255</ele>
        <time>2011-05-13T06:42:09Z</time>
      </trkpt>
      <trkpt lat="59.3092826" lon="18.1900497">
        <ele>37.1481</ele>
        <time>2011-05-13T06:42:15Z</time>
      </trkpt>
      <trkpt lat="59.3092041" lon="18.1893527">
        <ele>39.0707</ele>
        <time>2011-05-13T06:42:25Z</time>
      </trkpt>
      <trkpt lat="59.3091845" lon="18.1888281">
        <ele>39.0707</ele>
        <time>2011-05-13T06:42:32Z</time>
      </trkpt>
      <trkpt lat="59.3091935" lon="18.1883023">
        <ele>38.1094</ele>
        <time>2011-05-13T06:42:38Z</time>
      </trkpt>
      <trkpt lat="59.3092034" lon="18.1876917">
        <ele>36.1868</ele>
        <time>2011-05-13T06:42:44Z</time>
      </trkpt>
      <trkpt lat="59.3092813" lon="18.1871792">
        <ele>33.7834</ele>
        <time>2011-05-13T06:42:49Z</time>
      </trkpt>
      <trkpt lat="59.3093279" lon="18.1866809">
        <ele>32.8223</ele>
        <time>2011-05-13T06:42:53Z</time>
      </trkpt>
      <trkpt lat="59.3094361" lon="18.1862385">
        <ele>31.8607</ele>
        <time>2011-05-13T06:42:57Z</time>
      </trkpt>
      <trkpt lat="59.3095956" lon="18.1858901">
        <ele>31.8607</ele>
        <time>2011-05-13T06:43:01Z</time>
      </trkpt>
      <trkpt lat="59.3095988" lon="18.1855351">
        <ele>30.4188</ele>
        <time>2011-05-13T06:43:05Z</time>
      </trkpt>
      <trkpt lat="59.3095564" lon="18.1854433">
        <ele>29.9381</ele>
        <time>2011-05-13T06:43:06Z</time>
      </trkpt>
      <trkpt lat="59.3094222" lon="18.185134">
        <ele>28.4962</ele>
        <time>2011-05-13T06:43:09Z</time>
      </trkpt>
      <trkpt lat="59.3092037" lon="18.1849504">
        <ele>27.0543</ele>
        <time>2011-05-13T06:43:13Z</time>
      </trkpt>
      <trkpt lat="59.3091422" lon="18.1849325">
        <ele>26.5736</ele>
        <time>2011-05-13T06:43:14Z</time>
      </trkpt>
      <trkpt lat="59.3090514" lon="18.1848004">
        <ele>24.1703</ele>
        <time>2011-05-13T06:43:17Z</time>
      </trkpt>
      <trkpt lat="59.3090555" lon="18.1846376">
        <ele>24.1703</ele>
        <time>2011-05-13T06:43:19Z</time>
      </trkpt>
      <trkpt lat="59.3090796" lon="18.184285">
        <ele>24.651</ele>
        <time>2011-05-13T06:43:23Z</time>
      </trkpt>
      <trkpt lat="59.3090958" lon="18.1835648">
        <ele>24.1703</ele>
        <time>2011-05-13T06:43:30Z</time>
      </trkpt>
      <trkpt lat="59.3091118" lon="18.1829758">
        <ele>23.6896</ele>
        <time>2011-05-13T06:43:35Z</time>
      </trkpt>
      <trkpt lat="59.3090249" lon="18.1825444">
        <ele>22.7283</ele>
        <time>2011-05-13T06:43:39Z</time>
      </trkpt>
      <trkpt lat="59.3089975" lon="18.1823088">
        <ele>22.2476</ele>
        <time>2011-05-13T06:43:41Z</time>
      </trkpt>
      <trkpt lat="59.3090047" lon="18.1819104">
        <ele>21.2864</ele>
        <time>2011-05-13T06:43:44Z</time>
      </trkpt>
      <trkpt lat="59.3090917" lon="18.1812293">
        <ele>22.7283</ele>
        <time>2011-05-13T06:43:50Z</time>
      </trkpt>
      <trkpt lat="59.3091257" lon="18.1808067">
        <ele>23.6896</ele>
        <time>2011-05-13T06:43:55Z</time>
      </trkpt>
      <trkpt lat="59.3091161" lon="18.1804436">
        <ele>22.2476</ele>
        <time>2011-05-13T06:43:59Z</time>
      </trkpt>
      <trkpt lat="59.3091274" lon="18.1799146">
        <ele>18.8831</ele>
        <time>2011-05-13T06:44:04Z</time>
      </trkpt>
      <trkpt lat="59.3090931" lon="18.1795702">
        <ele>18.4023</ele>
        <time>2011-05-13T06:44:07Z</time>
      </trkpt>
      <trkpt lat="59.3088736" lon="18.1786769">
        <ele>19.3638</ele>
        <time>2011-05-13T06:44:15Z</time>
      </trkpt>
      <trkpt lat="59.3087692" lon="18.1779907">
        <ele>19.3638</ele>
        <time>2011-05-13T06:44:21Z</time>
      </trkpt>
      <trkpt lat="59.3087546" lon="18.1777957">
        <ele>19.3638</ele>
        <time>2011-05-13T06:44:23Z</time>
      </trkpt>
      <trkpt lat="59.3087307" lon="18.1775294">
        <ele>19.8444</ele>
        <time>2011-05-13T06:44:25Z</time>
      </trkpt>
      <trkpt lat="59.3088228" lon="18.1770411">
        <ele>20.8057</ele>
        <time>2011-05-13T06:44:30Z</time>
      </trkpt>
      <trkpt lat="59.3089424" lon="18.1765071">
        <ele>22.2476</ele>
        <time>2011-05-13T06:44:36Z</time>
      </trkpt>
      <trkpt lat="59.3089622" lon="18.1763248">
        <ele>22.7283</ele>
        <time>2011-05-13T06:44:38Z</time>
      </trkpt>
      <trkpt lat="59.3089511" lon="18.1758529">
        <ele>24.1703</ele>
        <time>2011-05-13T06:44:44Z</time>
      </trkpt>
      <trkpt lat="59.3089478" lon="18.1757923">
        <ele>24.651</ele>
        <time>2011-05-13T06:44:45Z</time>
      </trkpt>
      <trkpt lat="59.3089425" lon="18.1752489">
        <ele>30.4188</ele>
        <time>2011-05-13T06:44:55Z</time>
      </trkpt>
      <trkpt lat="59.3089399" lon="18.1747769">
        <ele>30.8995</ele>
        <time>2011-05-13T06:45:03Z</time>
      </trkpt>
      <trkpt lat="59.3089067" lon="18.1741655">
        <ele>29.4575</ele>
        <time>2011-05-13T06:45:12Z</time>
      </trkpt>
      <trkpt lat="59.308882" lon="18.1736295">
        <ele>28.9769</ele>
        <time>2011-05-13T06:45:19Z</time>
      </trkpt>
      <trkpt lat="59.3088587" lon="18.1729846">
        <ele>27.0543</ele>
        <time>2011-05-13T06:45:27Z</time>
      </trkpt>
      <trkpt lat="59.3088732" lon="18.172294">
        <ele>27.5349</ele>
        <time>2011-05-13T06:45:35Z</time>
      </trkpt>
      <trkpt lat="59.3089273" lon="18.1714035">
        <ele>32.8223</ele>
        <time>2011-05-13T06:45:44Z</time>
      </trkpt>
      <trkpt lat="59.3089816" lon="18.1706876">
        <ele>32.8223</ele>
        <time>2011-05-13T06:45:52Z</time>
      </trkpt>
      <trkpt lat="59.309028" lon="18.1699608">
        <ele>32.3416</ele>
        <time>2011-05-13T06:46:00Z</time>
      </trkpt>
      <trkpt lat="59.3090663" lon="18.169182">
        <ele>34.2642</ele>
        <time>2011-05-13T06:46:08Z</time>
      </trkpt>
      <trkpt lat="59.3090527" lon="18.1684853">
        <ele>36.1868</ele>
        <time>2011-05-13T06:46:15Z</time>
      </trkpt>
      <trkpt lat="59.3090482" lon="18.1683868">
        <ele>36.1868</ele>
        <time>2011-05-13T06:46:16Z</time>
      </trkpt>
      <trkpt lat="59.3090243" lon="18.1681013">
        <ele>37.1481</ele>
        <time>2011-05-13T06:46:19Z</time>
      </trkpt>
      <trkpt lat="59.3088808" lon="18.1672198">
        <ele>38.1094</ele>
        <time>2011-05-13T06:46:29Z</time>
      </trkpt>
      <trkpt lat="59.3087063" lon="18.1665566">
        <ele>39.5513</ele>
        <time>2011-05-13T06:46:37Z</time>
      </trkpt>
      <trkpt lat="59.3085457" lon="18.1659816">
        <ele>38.5901</ele>
        <time>2011-05-13T06:46:44Z</time>
      </trkpt>
      <trkpt lat="59.3083829" lon="18.1654274">
        <ele>39.0707</ele>
        <time>2011-05-13T06:46:51Z</time>
      </trkpt>
      <trkpt lat="59.3081573" lon="18.1646531">
        <ele>40.0321</ele>
        <time>2011-05-13T06:47:01Z</time>
      </trkpt>
      <trkpt lat="59.307992" lon="18.1641187">
        <ele>39.0707</ele>
        <time>2011-05-13T06:47:08Z</time>
      </trkpt>
      <trkpt lat="59.3079732" lon="18.1640408">
        <ele>39.5513</ele>
        <time>2011-05-13T06:47:09Z</time>
      </trkpt>
      <trkpt lat="59.307811" lon="18.1635133">
        <ele>38.1094</ele>
        <time>2011-05-13T06:47:16Z</time>
      </trkpt>
      <trkpt lat="59.3077545" lon="18.1632502">
        <ele>36.6675</ele>
        <time>2011-05-13T06:47:20Z</time>
      </trkpt>
      <trkpt lat="59.3077661" lon="18.1631388">
        <ele>36.1868</ele>
        <time>2011-05-13T06:47:24Z</time>
      </trkpt>
      <trkpt lat="59.3077863" lon="18.1631202">
        <ele>39.0707</ele>
        <time>2011-05-13T06:47:33Z</time>
      </trkpt>
      <trkpt lat="59.3078736" lon="18.1630222">
        <ele>39.5513</ele>
        <time>2011-05-13T06:47:37Z</time>
      </trkpt>
      <trkpt lat="59.3079024" lon="18.1629884">
        <ele>39.5513</ele>
        <time>2011-05-13T06:47:38Z</time>
      </trkpt>
      <trkpt lat="59.3079016" lon="18.1627652">
        <ele>39.5513</ele>
        <time>2011-05-13T06:47:42Z</time>
      </trkpt>
      <trkpt lat="59.3077752" lon="18.1623011">
        <ele>38.5901</ele>
        <time>2011-05-13T06:47:47Z</time>
      </trkpt>
      <trkpt lat="59.3076106" lon="18.1617626">
        <ele>39.0707</ele>
        <time>2011-05-13T06:47:52Z</time>
      </trkpt>
      <trkpt lat="59.3074939" lon="18.1609771">
        <ele>36.6675</ele>
        <time>2011-05-13T06:47:58Z</time>
      </trkpt>
      <trkpt lat="59.3074304" lon="18.1601394">
        <ele>34.7449</ele>
        <time>2011-05-13T06:48:04Z</time>
      </trkpt>
      <trkpt lat="59.3074185" lon="18.158872">
        <ele>30.4188</ele>
        <time>2011-05-13T06:48:13Z</time>
      </trkpt>
      <trkpt lat="59.307451" lon="18.1579031">
        <ele>27.0543</ele>
        <time>2011-05-13T06:48:20Z</time>
      </trkpt>
      <trkpt lat="59.3075118" lon="18.1572124">
        <ele>24.651</ele>
        <time>2011-05-13T06:48:25Z</time>
      </trkpt>
      <trkpt lat="59.3075121" lon="18.1564824">
        <ele>22.7283</ele>
        <time>2011-05-13T06:48:30Z</time>
      </trkpt>
      <trkpt lat="59.3075786" lon="18.155433">
        <ele>21.2864</ele>
        <time>2011-05-13T06:48:37Z</time>
      </trkpt>
      <trkpt lat="59.3076734" lon="18.1543201">
        <ele>20.8057</ele>
        <time>2011-05-13T06:48:45Z</time>
      </trkpt>
      <trkpt lat="59.3076884" lon="18.154203">
        <ele>20.325</ele>
        <time>2011-05-13T06:48:46Z</time>
      </trkpt>
      <trkpt lat="59.3076491" lon="18.1539353">
        <ele>20.8057</ele>
        <time>2011-05-13T06:48:50Z</time>
      </trkpt>
      <trkpt lat="59.3076139" lon="18.1536016">
        <ele>21.767</ele>
        <time>2011-05-13T06:48:55Z</time>
      </trkpt>
      <trkpt lat="59.307635" lon="18.1531297">
        <ele>21.2864</ele>
        <time>2011-05-13T06:49:00Z</time>
      </trkpt>
      <trkpt lat="59.3076151" lon="18.1524713">
        <ele>20.325</ele>
        <time>2011-05-13T06:49:06Z</time>
      </trkpt>
      <trkpt lat="59.3076058" lon="18.1522466">
        <ele>20.325</ele>
        <time>2011-05-13T06:49:08Z</time>
      </trkpt>
      <trkpt lat="59.3074976" lon="18.1515262">
        <ele>20.325</ele>
        <time>2011-05-13T06:49:14Z</time>
      </trkpt>
      <trkpt lat="59.3074321" lon="18.1508593">
        <ele>20.325</ele>
        <time>2011-05-13T06:49:19Z</time>
      </trkpt>
      <trkpt lat="59.3073077" lon="18.1497382">
        <ele>18.4023</ele>
        <time>2011-05-13T06:49:27Z</time>
      </trkpt>
      <trkpt lat="59.3071616" lon="18.1486407">
        <ele>17.9218</ele>
        <time>2011-05-13T06:49:35Z</time>
      </trkpt>
      <trkpt lat="59.3070331" lon="18.1475299">
        <ele>17.4412</ele>
        <time>2011-05-13T06:49:44Z</time>
      </trkpt>
      <trkpt lat="59.306984" lon="18.1464319">
        <ele>17.4412</ele>
        <time>2011-05-13T06:49:53Z</time>
      </trkpt>
      <trkpt lat="59.3069522" lon="18.1452167">
        <ele>22.2476</ele>
        <time>2011-05-13T06:50:02Z</time>
      </trkpt>
      <trkpt lat="59.3069093" lon="18.1438564">
        <ele>25.6123</ele>
        <time>2011-05-13T06:50:12Z</time>
      </trkpt>
      <trkpt lat="59.3068798" lon="18.1430248">
        <ele>24.651</ele>
        <time>2011-05-13T06:50:18Z</time>
      </trkpt>
      <trkpt lat="59.3068664" lon="18.1421853">
        <ele>20.8057</ele>
        <time>2011-05-13T06:50:24Z</time>
      </trkpt>
      <trkpt lat="59.306872" lon="18.1410284">
        <ele>15.5184</ele>
        <time>2011-05-13T06:50:32Z</time>
      </trkpt>
      <trkpt lat="59.3069611" lon="18.1403314">
        <ele>12.6344</ele>
        <time>2011-05-13T06:50:37Z</time>
      </trkpt>
      <trkpt lat="59.3069666" lon="18.1397703">
        <ele>11.6732</ele>
        <time>2011-05-13T06:50:41Z</time>
      </trkpt>
      <trkpt lat="59.3070174" lon="18.1394279">
        <ele>10.2312</ele>
        <time>2011-05-13T06:50:44Z</time>
      </trkpt>
      <trkpt lat="59.3070161" lon="18.1386728">
        <ele>11.1925</ele>
        <time>2011-05-13T06:50:51Z</time>
      </trkpt>
      <trkpt lat="59.3069532" lon="18.1379703">
        <ele>10.7118</ele>
        <time>2011-05-13T06:50:57Z</time>
      </trkpt>
      <trkpt lat="59.3069171" lon="18.1377159">
        <ele>11.6732</ele>
        <time>2011-05-13T06:50:59Z</time>
      </trkpt>
      <trkpt lat="59.3068035" lon="18.1369347">
        <ele>10.7118</ele>
        <time>2011-05-13T06:51:05Z</time>
      </trkpt>
      <trkpt lat="59.3067798" lon="18.1361277">
        <ele>8.78918</ele>
        <time>2011-05-13T06:51:11Z</time>
      </trkpt>
      <trkpt lat="59.3068066" lon="18.1352096">
        <ele>6.86646</ele>
        <time>2011-05-13T06:51:18Z</time>
      </trkpt>
      <trkpt lat="59.3068373" lon="18.1340922">
        <ele>3.50195</ele>
        <time>2011-05-13T06:51:27Z</time>
      </trkpt>
      <trkpt lat="59.3068487" lon="18.1330906">
        <ele>4.94385</ele>
        <time>2011-05-13T06:51:35Z</time>
      </trkpt>
      <trkpt lat="59.3068486" lon="18.1322608">
        <ele>6.86646</ele>
        <time>2011-05-13T06:51:42Z</time>
      </trkpt>
      <trkpt lat="59.3068274" lon="18.1316346">
        <ele>9.75061</ele>
        <time>2011-05-13T06:51:47Z</time>
      </trkpt>
      <trkpt lat="59.3067963" lon="18.1306286">
        <ele>12.1538</ele>
        <time>2011-05-13T06:51:55Z</time>
      </trkpt>
      <trkpt lat="59.3068327" lon="18.1296171">
        <ele>11.1925</ele>
        <time>2011-05-13T06:52:03Z</time>
      </trkpt>
      <trkpt lat="59.3068491" lon="18.1287756">
        <ele>10.2312</ele>
        <time>2011-05-13T06:52:10Z</time>
      </trkpt>
      <trkpt lat="59.3068992" lon="18.1282149">
        <ele>9.2699</ele>
        <time>2011-05-13T06:52:15Z</time>
      </trkpt>
      <trkpt lat="59.3069492" lon="18.1276856">
        <ele>8.78918</ele>
        <time>2011-05-13T06:52:20Z</time>
      </trkpt>
      <trkpt lat="59.3069036" lon="18.1273775">
        <ele>9.2699</ele>
        <time>2011-05-13T06:52:23Z</time>
      </trkpt>
      <trkpt lat="59.3068917" lon="18.1271708">
        <ele>8.78918</ele>
        <time>2011-05-13T06:52:25Z</time>
      </trkpt>
      <trkpt lat="59.3068656" lon="18.1263881">
        <ele>9.75061</ele>
        <time>2011-05-13T06:52:33Z</time>
      </trkpt>
      <trkpt lat="59.306819" lon="18.1258204">
        <ele>10.7118</ele>
        <time>2011-05-13T06:52:40Z</time>
      </trkpt>
      <trkpt lat="59.3067589" lon="18.1248929">
        <ele>14.0764</ele>
        <time>2011-05-13T06:52:52Z</time>
      </trkpt>
      <trkpt lat="59.306745" lon="18.1241482">
        <ele>15.5184</ele>
        <time>2011-05-13T06:53:01Z</time>
      </trkpt>
      <trkpt lat="59.3067776" lon="18.1233055">
        <ele>16.4797</ele>
        <time>2011-05-13T06:53:11Z</time>
      </trkpt>
      <trkpt lat="59.3068129" lon="18.1226506">
        <ele>17.4412</ele>
        <time>2011-05-13T06:53:19Z</time>
      </trkpt>
      <trkpt lat="59.3069387" lon="18.1220412">
        <ele>16.9604</ele>
        <time>2011-05-13T06:53:27Z</time>
      </trkpt>
      <trkpt lat="59.3069661" lon="18.1218078">
        <ele>17.4412</ele>
        <time>2011-05-13T06:53:30Z</time>
      </trkpt>
      <trkpt lat="59.3070793" lon="18.1213116">
        <ele>18.4023</ele>
        <time>2011-05-13T06:53:37Z</time>
      </trkpt>
      <trkpt lat="59.3072232" lon="18.1208743">
        <ele>19.8444</ele>
        <time>2011-05-13T06:53:44Z</time>
      </trkpt>
      <trkpt lat="59.3072832" lon="18.1205331">
        <ele>19.8444</ele>
        <time>2011-05-13T06:53:49Z</time>
      </trkpt>
      <trkpt lat="59.3073676" lon="18.1200565">
        <ele>21.2864</ele>
        <time>2011-05-13T06:53:55Z</time>
      </trkpt>
      <trkpt lat="59.3074978" lon="18.11956">
        <ele>20.325</ele>
        <time>2011-05-13T06:54:00Z</time>
      </trkpt>
      <trkpt lat="59.3076443" lon="18.1187265">
        <ele>17.4412</ele>
        <time>2011-05-13T06:54:06Z</time>
      </trkpt>
      <trkpt lat="59.3078532" lon="18.1176803">
        <ele>14.0764</ele>
        <time>2011-05-13T06:54:13Z</time>
      </trkpt>
      <trkpt lat="59.3081396" lon="18.1166531">
        <ele>10.2312</ele>
        <time>2011-05-13T06:54:20Z</time>
      </trkpt>
      <trkpt lat="59.3081877" lon="18.1159989">
        <ele>8.30859</ele>
        <time>2011-05-13T06:54:24Z</time>
      </trkpt>
      <trkpt lat="59.3082007" lon="18.1151535">
        <ele>6.38586</ele>
        <time>2011-05-13T06:54:28Z</time>
      </trkpt>
      <trkpt lat="59.3080499" lon="18.1145705">
        <ele>7.34717</ele>
        <time>2011-05-13T06:54:32Z</time>
      </trkpt>
      <trkpt lat="59.3078439" lon="18.1140222">
        <ele>5.42456</ele>
        <time>2011-05-13T06:54:37Z</time>
      </trkpt>
      <trkpt lat="59.3076432" lon="18.1138368">
        <ele>4.46326</ele>
        <time>2011-05-13T06:54:40Z</time>
      </trkpt>
      <trkpt lat="59.3074963" lon="18.1137959">
        <ele>3.50195</ele>
        <time>2011-05-13T06:54:42Z</time>
      </trkpt>
      <trkpt lat="59.3072622" lon="18.113657">
        <ele>1.57935</ele>
        <time>2011-05-13T06:54:47Z</time>
      </trkpt>
      <trkpt lat="59.3072268" lon="18.1135491">
        <ele>2.06006</ele>
        <time>2011-05-13T06:54:49Z</time>
      </trkpt>
      <trkpt lat="59.307208" lon="18.1133894">
        <ele>2.54065</ele>
        <time>2011-05-13T06:54:51Z</time>
      </trkpt>
      <trkpt lat="59.3071869" lon="18.1131309">
        <ele>1.09863</ele>
        <time>2011-05-13T06:54:54Z</time>
      </trkpt>
      <trkpt lat="59.3072719" lon="18.1127016">
        <ele>0.137451</ele>
        <time>2011-05-13T06:54:58Z</time>
      </trkpt>
      <trkpt lat="59.3073129" lon="18.1126608">
        <ele>0.137451</ele>
        <time>2011-05-13T06:54:59Z</time>
      </trkpt>
      <trkpt lat="59.3074388" lon="18.1125115">
        <ele>0.618042</ele>
        <time>2011-05-13T06:55:02Z</time>
      </trkpt>
      <trkpt lat="59.3075682" lon="18.112191">
        <ele>1.57935</ele>
        <time>2011-05-13T06:55:06Z</time>
      </trkpt>
      <trkpt lat="59.307709" lon="18.1116306">
        <ele>4.46326</ele>
        <time>2011-05-13T06:55:12Z</time>
      </trkpt>
      <trkpt lat="59.3077517" lon="18.111171">
        <ele>4.46326</ele>
        <time>2011-05-13T06:55:17Z</time>
      </trkpt>
      <trkpt lat="59.3077066" lon="18.1106074">
        <ele>3.98267</ele>
        <time>2011-05-13T06:55:22Z</time>
      </trkpt>
      <trkpt lat="59.3077087" lon="18.1104835">
        <ele>3.98267</ele>
        <time>2011-05-13T06:55:23Z</time>
      </trkpt>
      <trkpt lat="59.3077878" lon="18.1095298">
        <ele>3.50195</ele>
        <time>2011-05-13T06:55:31Z</time>
      </trkpt>
      <trkpt lat="59.3078629" lon="18.1086541">
        <ele>2.54065</ele>
        <time>2011-05-13T06:55:39Z</time>
      </trkpt>
      <trkpt lat="59.3078929" lon="18.1084374">
        <ele>2.54065</ele>
        <time>2011-05-13T06:55:41Z</time>
      </trkpt>
      <trkpt lat="59.3079588" lon="18.1081233">
        <ele>2.54065</ele>
        <time>2011-05-13T06:55:44Z</time>
      </trkpt>
      <trkpt lat="59.30817" lon="18.1072964">
        <ele>1.57935</ele>
        <time>2011-05-13T06:55:52Z</time>
      </trkpt>
      <trkpt lat="59.3083551" lon="18.106416">
        <ele>2.54065</ele>
        <time>2011-05-13T06:56:00Z</time>
      </trkpt>
      <trkpt lat="59.30848" lon="18.1059868">
        <ele>3.50195</ele>
        <time>2011-05-13T06:56:04Z</time>
      </trkpt>
      <trkpt lat="59.3087504" lon="18.1055486">
        <ele>3.50195</ele>
        <time>2011-05-13T06:56:10Z</time>
      </trkpt>
      <trkpt lat="59.3092059" lon="18.1051599">
        <ele>3.50195</ele>
        <time>2011-05-13T06:56:19Z</time>
      </trkpt>
      <trkpt lat="59.3093686" lon="18.1050329">
        <ele>3.50195</ele>
        <time>2011-05-13T06:56:22Z</time>
      </trkpt>
      <trkpt lat="59.3097086" lon="18.1049752">
        <ele>4.46326</ele>
        <time>2011-05-13T06:56:28Z</time>
      </trkpt>
      <trkpt lat="59.3097573" lon="18.104987">
        <ele>4.46326</ele>
        <time>2011-05-13T06:56:29Z</time>
      </trkpt>
      <trkpt lat="59.3099178" lon="18.105072">
        <ele>5.42456</ele>
        <time>2011-05-13T06:56:33Z</time>
      </trkpt>
      <trkpt lat="59.3102371" lon="18.1054377">
        <ele>6.86646</ele>
        <time>2011-05-13T06:56:43Z</time>
      </trkpt>
      <trkpt lat="59.3105773" lon="18.1059215">
        <ele>6.38586</ele>
        <time>2011-05-13T06:56:52Z</time>
      </trkpt>
      <trkpt lat="59.3107561" lon="18.1061438">
        <ele>5.90527</ele>
        <time>2011-05-13T06:56:56Z</time>
      </trkpt>
      <trkpt lat="59.3109465" lon="18.1061205">
        <ele>5.42456</ele>
        <time>2011-05-13T06:57:00Z</time>
      </trkpt>
      <trkpt lat="59.3113507" lon="18.105718">
        <ele>4.94385</ele>
        <time>2011-05-13T06:57:09Z</time>
      </trkpt>
      <trkpt lat="59.3115215" lon="18.1057139">
        <ele>5.90527</ele>
        <time>2011-05-13T06:57:13Z</time>
      </trkpt>
      <trkpt lat="59.3115698" lon="18.105912">
        <ele>6.38586</ele>
        <time>2011-05-13T06:57:16Z</time>
      </trkpt>
      <trkpt lat="59.3115702" lon="18.1063799">
        <ele>6.38586</ele>
        <time>2011-05-13T06:57:22Z</time>
      </trkpt>
      <trkpt lat="59.3116399" lon="18.1066543">
        <ele>6.86646</ele>
        <time>2011-05-13T06:57:26Z</time>
      </trkpt>
      <trkpt lat="59.3117553" lon="18.1068822">
        <ele>7.82788</ele>
        <time>2011-05-13T06:57:30Z</time>
      </trkpt>
      <trkpt lat="59.3119335" lon="18.107144">
        <ele>9.2699</ele>
        <time>2011-05-13T06:57:36Z</time>
      </trkpt>
      <trkpt lat="59.3120633" lon="18.1073562">
        <ele>9.2699</ele>
        <time>2011-05-13T06:57:41Z</time>
      </trkpt>
      <trkpt lat="59.3122981" lon="18.1072865">
        <ele>10.2312</ele>
        <time>2011-05-13T06:57:48Z</time>
      </trkpt>
      <trkpt lat="59.312494" lon="18.1071721">
        <ele>12.6344</ele>
        <time>2011-05-13T06:57:54Z</time>
      </trkpt>
      <trkpt lat="59.3126555" lon="18.106998">
        <ele>15.5184</ele>
        <time>2011-05-13T06:57:59Z</time>
      </trkpt>
      <trkpt lat="59.3128239" lon="18.1066275">
        <ele>12.1538</ele>
        <time>2011-05-13T06:58:05Z</time>
      </trkpt>
      <trkpt lat="59.3129855" lon="18.1062971">
        <ele>10.2312</ele>
        <time>2011-05-13T06:58:10Z</time>
      </trkpt>
      <trkpt lat="59.3132564" lon="18.1057147">
        <ele>7.82788</ele>
        <time>2011-05-13T06:58:19Z</time>
      </trkpt>
      <trkpt lat="59.3133906" lon="18.1053637">
        <ele>8.78918</ele>
        <time>2011-05-13T06:58:24Z</time>
      </trkpt>
      <trkpt lat="59.3135853" lon="18.1047053">
        <ele>10.7118</ele>
        <time>2011-05-13T06:58:34Z</time>
      </trkpt>
      <trkpt lat="59.3136831" lon="18.1043513">
        <ele>11.1925</ele>
        <time>2011-05-13T06:58:39Z</time>
      </trkpt>
      <trkpt lat="59.3137973" lon="18.1038825">
        <ele>10.2312</ele>
        <time>2011-05-13T06:58:45Z</time>
      </trkpt>
      <trkpt lat="59.3139039" lon="18.1030465">
        <ele>10.2312</ele>
        <time>2011-05-13T06:58:54Z</time>
      </trkpt>
      <trkpt lat="59.3139108" lon="18.1024865">
        <ele>9.75061</ele>
        <time>2011-05-13T06:58:59Z</time>
      </trkpt>
      <trkpt lat="59.3138868" lon="18.1014335">
        <ele>7.82788</ele>
        <time>2011-05-13T06:59:07Z</time>
      </trkpt>
      <trkpt lat="59.3138618" lon="18.1011583">
        <ele>7.82788</ele>
        <time>2011-05-13T06:59:09Z</time>
      </trkpt>
      <trkpt lat="59.313861" lon="18.1007389">
        <ele>6.38586</ele>
        <time>2011-05-13T06:59:12Z</time>
      </trkpt>
      <trkpt lat="59.3137948" lon="18.1002287">
        <ele>4.94385</ele>
        <time>2011-05-13T06:59:16Z</time>
      </trkpt>
      <trkpt lat="59.313746" lon="18.1001395">
        <ele>5.42456</ele>
        <time>2011-05-13T06:59:17Z</time>
      </trkpt>
      <trkpt lat="59.3135344" lon="18.0998142">
        <ele>7.34717</ele>
        <time>2011-05-13T06:59:22Z</time>
      </trkpt>
      <trkpt lat="59.3132834" lon="18.0996746">
        <ele>8.78918</ele>
        <time>2011-05-13T06:59:28Z</time>
      </trkpt>
      <trkpt lat="59.3129756" lon="18.0995474">
        <ele>8.78918</ele>
        <time>2011-05-13T06:59:34Z</time>
      </trkpt>
      <trkpt lat="59.3128834" lon="18.0994581">
        <ele>8.30859</ele>
        <time>2011-05-13T06:59:38Z</time>
      </trkpt>
      <trkpt lat="59.312794" lon="18.0992978">
        <ele>8.78918</ele>
        <time>2011-05-13T06:59:43Z</time>
      </trkpt>
      <trkpt lat="59.3127538" lon="18.0992643">
        <ele>8.78918</ele>
        <time>2011-05-13T06:59:44Z</time>
      </trkpt>
      <trkpt lat="59.3124267" lon="18.0990843">
        <ele>8.30859</ele>
        <time>2011-05-13T06:59:50Z</time>
      </trkpt>
      <trkpt lat="59.312026" lon="18.0990093">
        <ele>17.4412</ele>
        <time>2011-05-13T06:59:56Z</time>
      </trkpt>
      <trkpt lat="59.3116763" lon="18.0988639">
        <ele>28.0155</ele>
        <time>2011-05-13T07:00:01Z</time>
      </trkpt>
      <trkpt lat="59.3112838" lon="18.098718">
        <ele>36.1868</ele>
        <time>2011-05-13T07:00:07Z</time>
      </trkpt>
      <trkpt lat="59.310933" lon="18.0984823">
        <ele>36.6675</ele>
        <time>2011-05-13T07:00:12Z</time>
      </trkpt>
      <trkpt lat="59.310583" lon="18.098187">
        <ele>30.8995</ele>
        <time>2011-05-13T07:00:18Z</time>
      </trkpt>
      <trkpt lat="59.3105339" lon="18.0981875">
        <ele>30.4188</ele>
        <time>2011-05-13T07:00:19Z</time>
      </trkpt>
      <trkpt lat="59.3100458" lon="18.0978947">
        <ele>34.2642</ele>
        <time>2011-05-13T07:00:27Z</time>
      </trkpt>
      <trkpt lat="59.3096112" lon="18.0976446">
        <ele>32.3416</ele>
        <time>2011-05-13T07:00:34Z</time>
      </trkpt>
      <trkpt lat="59.3092859" lon="18.0974086">
        <ele>26.0929</ele>
        <time>2011-05-13T07:00:41Z</time>
      </trkpt>
      <trkpt lat="59.3089368" lon="18.0971843">
        <ele>24.1703</ele>
        <time>2011-05-13T07:00:47Z</time>
      </trkpt>
      <trkpt lat="59.308819" lon="18.0971408">
        <ele>24.1703</ele>
        <time>2011-05-13T07:00:49Z</time>
      </trkpt>
      <trkpt lat="59.3087316" lon="18.0969574">
        <ele>20.8057</ele>
        <time>2011-05-13T07:00:53Z</time>
      </trkpt>
      <trkpt lat="59.3087237" lon="18.0968457">
        <ele>17.4412</ele>
        <time>2011-05-13T07:00:55Z</time>
      </trkpt>
      <trkpt lat="59.3086332" lon="18.096313">
        <ele>10.7118</ele>
        <time>2011-05-13T07:01:01Z</time>
      </trkpt>
      <trkpt lat="59.3084748" lon="18.0955639">
        <ele>8.78918</ele>
        <time>2011-05-13T07:01:08Z</time>
      </trkpt>
      <trkpt lat="59.3084851" lon="18.0951548">
        <ele>7.82788</ele>
        <time>2011-05-13T07:01:12Z</time>
      </trkpt>
      <trkpt lat="59.3085789" lon="18.0944776">
        <ele>6.86646</ele>
        <time>2011-05-13T07:01:19Z</time>
      </trkpt>
      <trkpt lat="59.3085824" lon="18.0943791">
        <ele>5.90527</ele>
        <time>2011-05-13T07:01:20Z</time>
      </trkpt>
      <trkpt lat="59.3086539" lon="18.0939739">
        <ele>4.94385</ele>
        <time>2011-05-13T07:01:25Z</time>
      </trkpt>
      <trkpt lat="59.3087098" lon="18.0935595">
        <ele>2.54065</ele>
        <time>2011-05-13T07:01:30Z</time>
      </trkpt>
      <trkpt lat="59.308554" lon="18.0933339">
        <ele>0.618042</ele>
        <time>2011-05-13T07:01:34Z</time>
      </trkpt>
      <trkpt lat="59.3085213" lon="18.0932442">
        <ele>1.09863</ele>
        <time>2011-05-13T07:01:35Z</time>
      </trkpt>
      <trkpt lat="59.3083145" lon="18.0924541">
        <ele>4.94385</ele>
        <time>2011-05-13T07:01:43Z</time>
      </trkpt>
      <trkpt lat="59.3082706" lon="18.0920041">
        <ele>15.5184</ele>
        <time>2011-05-13T07:01:48Z</time>
      </trkpt>
      <trkpt lat="59.3081779" lon="18.0912811">
        <ele>21.2864</ele>
        <time>2011-05-13T07:01:55Z</time>
      </trkpt>
      <trkpt lat="59.3080126" lon="18.0906862">
        <ele>17.9218</ele>
        <time>2011-05-13T07:02:01Z</time>
      </trkpt>
      <trkpt lat="59.3079624" lon="18.0905091">
        <ele>17.4412</ele>
        <time>2011-05-13T07:02:03Z</time>
      </trkpt>
      <trkpt lat="59.307784" lon="18.0904459">
        <ele>15.999</ele>
        <time>2011-05-13T07:02:07Z</time>
      </trkpt>
      <trkpt lat="59.3075692" lon="18.0907044">
        <ele>22.7283</ele>
        <time>2011-05-13T07:02:11Z</time>
      </trkpt>
      <trkpt lat="59.3074039" lon="18.0906956">
        <ele>23.209</ele>
        <time>2011-05-13T07:02:15Z</time>
      </trkpt>
      <trkpt lat="59.307354" lon="18.0906511">
        <ele>23.209</ele>
        <time>2011-05-13T07:02:16Z</time>
      </trkpt>
      <trkpt lat="59.3072232" lon="18.0903347">
        <ele>19.8444</ele>
        <time>2011-05-13T07:02:20Z</time>
      </trkpt>
      <trkpt lat="59.3071538" lon="18.0899902">
        <ele>14.557</ele>
        <time>2011-05-13T07:02:24Z</time>
      </trkpt>
      <trkpt lat="59.307034" lon="18.0897689">
        <ele>12.6344</ele>
        <time>2011-05-13T07:02:28Z</time>
      </trkpt>
      <trkpt lat="59.3068391" lon="18.0895979">
        <ele>12.1538</ele>
        <time>2011-05-13T07:02:32Z</time>
      </trkpt>
      <trkpt lat="59.3067171" lon="18.0892607">
        <ele>15.0377</ele>
        <time>2011-05-13T07:02:36Z</time>
      </trkpt>
      <trkpt lat="59.3065146" lon="18.0884341">
        <ele>16.4797</ele>
        <time>2011-05-13T07:02:45Z</time>
      </trkpt>
      <trkpt lat="59.3064125" lon="18.087935">
        <ele>19.8444</ele>
        <time>2011-05-13T07:02:50Z</time>
      </trkpt>
      <trkpt lat="59.3063177" lon="18.0874908">
        <ele>22.7283</ele>
        <time>2011-05-13T07:02:54Z</time>
      </trkpt>
      <trkpt lat="59.3060732" lon="18.0865784">
        <ele>19.3638</ele>
        <time>2011-05-13T07:03:02Z</time>
      </trkpt>
      <trkpt lat="59.3058659" lon="18.0856259">
        <ele>15.0377</ele>
        <time>2011-05-13T07:03:10Z</time>
      </trkpt>
      <trkpt lat="59.3057601" lon="18.0848666">
        <ele>14.557</ele>
        <time>2011-05-13T07:03:16Z</time>
      </trkpt>
      <trkpt lat="59.3056276" lon="18.0839803">
        <ele>16.4797</ele>
        <time>2011-05-13T07:03:24Z</time>
      </trkpt>
      <trkpt lat="59.305525" lon="18.0828963">
        <ele>21.2864</ele>
        <time>2011-05-13T07:03:33Z</time>
      </trkpt>
      <trkpt lat="59.3054247" lon="18.0820799">
        <ele>20.8057</ele>
        <time>2011-05-13T07:03:40Z</time>
      </trkpt>
      <trkpt lat="59.3053841" lon="18.0817811">
        <ele>19.3638</ele>
        <time>2011-05-13T07:03:43Z</time>
      </trkpt>
      <trkpt lat="59.3053235" lon="18.081372">
        <ele>19.8444</ele>
        <time>2011-05-13T07:03:47Z</time>
      </trkpt>
      <trkpt lat="59.3053272" lon="18.0811503">
        <ele>19.3638</ele>
        <time>2011-05-13T07:03:52Z</time>
      </trkpt>
      <trkpt lat="59.3053631" lon="18.0811122">
        <ele>17.9218</ele>
        <time>2011-05-13T07:03:54Z</time>
      </trkpt>
      <trkpt lat="59.3055101" lon="18.0809876">
        <ele>14.557</ele>
        <time>2011-05-13T07:04:02Z</time>
      </trkpt>
      <trkpt lat="59.305635" lon="18.0809021">
        <ele>14.0764</ele>
        <time>2011-05-13T07:04:08Z</time>
      </trkpt>
      <trkpt lat="59.3058389" lon="18.0808188">
        <ele>14.557</ele>
        <time>2011-05-13T07:04:15Z</time>
      </trkpt>
      <trkpt lat="59.3060181" lon="18.0807178">
        <ele>15.0377</ele>
        <time>2011-05-13T07:04:21Z</time>
      </trkpt>
      <trkpt lat="59.3061556" lon="18.0805457">
        <ele>15.0377</ele>
        <time>2011-05-13T07:04:27Z</time>
      </trkpt>
      <trkpt lat="59.3062088" lon="18.0804849">
        <ele>17.4412</ele>
        <time>2011-05-13T07:04:32Z</time>
      </trkpt>
      <trkpt lat="59.3062523" lon="18.0804248">
        <ele>21.2864</ele>
        <time>2011-05-13T07:04:37Z</time>
      </trkpt>
      <trkpt lat="59.3062948" lon="18.0804167">
        <ele>25.6123</ele>
        <time>2011-05-13T07:04:42Z</time>
      </trkpt>
      <trkpt lat="59.3062919" lon="18.0804269">
        <ele>26.0929</ele>
        <time>2011-05-13T07:04:47Z</time>
      </trkpt>
      <trkpt lat="59.3062761" lon="18.0804585">
        <ele>26.0929</ele>
        <time>2011-05-13T07:04:51Z</time>
      </trkpt>
    </trkseg>
  </trk>
</gpx>